2016 Cux-Wetter.de -Die Nutzung der Wetterdaten nur mit ausdrcklicher Genehmigung
Wetterdaten: Donnerstag, 28.12.2017
Datum Zeit Temp. A. Feuchte A. Luftdruck Regen Wind Richtung Richtung Sonnenschein Solar Taupunkt Windchill Windben
28.12.2017 00:00 3,9 C 95 % 982,5 hPa 0,0 l/m 6,9 km/h (2 Bft) S 171 0 min 0 W/m 3,2 C 3,4 C 14,5 km/h (3 Bft)
28.12.2017 00:03 3,9 C 95 % 982,5 hPa 0,0 l/m 7,5 km/h (2 Bft) S-SO 162 0 min 0 W/m 3,2 C 2,9 C 11,3 km/h (2 Bft)
28.12.2017 00:06 3,8 C 95 % 982,5 hPa 0,0 l/m 7,5 km/h (2 Bft) S 173 0 min 0 W/m 3,1 C 2,8 C 11,3 km/h (2 Bft)
28.12.2017 00:09 3,8 C 95 % 982,4 hPa 0,0 l/m 6,0 km/h (2 Bft) S-SO 165 0 min 0 W/m 3,1 C 3,8 C 9,7 km/h (2 Bft)
28.12.2017 00:12 3,8 C 94 % 982,4 hPa 0,0 l/m 6,6 km/h (2 Bft) S-SO 164 0 min 0 W/m 2,9 C 3,6 C 9,7 km/h (2 Bft)
28.12.2017 00:15 3,8 C 95 % 982,4 hPa 0,0 l/m 5,2 km/h (1 Bft) S-SO 163 0 min 0 W/m 3,1 C 3,8 C 9,7 km/h (2 Bft)
28.12.2017 00:18 3,8 C 95 % 982,5 hPa 0,0 l/m 5,7 km/h (2 Bft) S-SO 165 0 min 0 W/m 3,1 C 3,8 C 9,7 km/h (2 Bft)
28.12.2017 00:21 3,7 C 95 % 982,5 hPa 0,0 l/m 6,1 km/h (2 Bft) S-SO 165 0 min 0 W/m 3,0 C 3,7 C 9,7 km/h (2 Bft)
28.12.2017 00:24 3,7 C 95 % 982,5 hPa 0,0 l/m 6,3 km/h (2 Bft) S-SO 168 0 min 0 W/m 3,0 C 3,7 C 9,7 km/h (2 Bft)
28.12.2017 00:27 3,7 C 95 % 982,6 hPa 0,0 l/m 6,7 km/h (2 Bft) S 171 0 min 0 W/m 3,0 C 3,4 C 9,7 km/h (2 Bft)
28.12.2017 00:30 3,7 C 95 % 982,6 hPa 0,0 l/m 7,1 km/h (2 Bft) S 190 0 min 0 W/m 3,0 C 3,1 C 11,3 km/h (2 Bft)
28.12.2017 00:33 3,7 C 95 % 982,6 hPa 0,0 l/m 5,5 km/h (2 Bft) S 174 0 min 0 W/m 3,0 C 3,7 C 9,7 km/h (2 Bft)
28.12.2017 00:36 3,7 C 95 % 982,6 hPa 0,0 l/m 6,8 km/h (2 Bft) S 174 0 min 0 W/m 3,0 C 3,3 C 9,7 km/h (2 Bft)
28.12.2017 00:39 3,7 C 95 % 982,6 hPa 0,0 l/m 6,0 km/h (2 Bft) S 184 0 min 0 W/m 3,0 C 3,7 C 11,3 km/h (2 Bft)
28.12.2017 00:42 3,8 C 95 % 982,6 hPa 0,0 l/m 5,9 km/h (2 Bft) S 173 0 min 0 W/m 3,1 C 3,8 C 9,7 km/h (2 Bft)
28.12.2017 00:45 3,8 C 95 % 982,6 hPa 0,0 l/m 7,1 km/h (2 Bft) S-SO 159 0 min 0 W/m 3,1 C 3,2 C 12,9 km/h (3 Bft)
28.12.2017 00:48 3,8 C 95 % 982,6 hPa 0,0 l/m 6,8 km/h (2 Bft) S 180 0 min 0 W/m 3,1 C 3,4 C 11,3 km/h (2 Bft)
28.12.2017 00:51 3,8 C 95 % 982,6 hPa 0,0 l/m 5,7 km/h (2 Bft) S 173 0 min 0 W/m 3,1 C 3,8 C 9,7 km/h (2 Bft)
28.12.2017 00:54 3,9 C 95 % 982,6 hPa 0,0 l/m 7,0 km/h (2 Bft) S 191 0 min 0 W/m 3,2 C 3,4 C 9,7 km/h (2 Bft)
28.12.2017 00:57 3,9 C 95 % 982,6 hPa 0,0 l/m 7,0 km/h (2 Bft) S 173 0 min 0 W/m 3,2 C 3,4 C 11,3 km/h (2 Bft)
28.12.2017 01:00 3,9 C 95 % 982,6 hPa 0,0 l/m 8,1 km/h (2 Bft) S 178 0 min 0 W/m 3,2 C 2,4 C 12,9 km/h (3 Bft)
28.12.2017 01:03 4,0 C 95 % 982,6 hPa 0,0 l/m 8,4 km/h (2 Bft) S 171 0 min 0 W/m 3,3 C 2,2 C 12,9 km/h (3 Bft)
28.12.2017 01:06 4,1 C 95 % 982,6 hPa 0,0 l/m 8,1 km/h (2 Bft) S-SO 164 0 min 0 W/m 3,4 C 2,6 C 12,9 km/h (3 Bft)
28.12.2017 01:09 4,1 C 95 % 982,7 hPa 0,0 l/m 7,6 km/h (2 Bft) S 178 0 min 0 W/m 3,4 C 3,0 C 12,9 km/h (3 Bft)
28.12.2017 01:12 4,2 C 95 % 982,7 hPa 0,0 l/m 6,4 km/h (2 Bft) S-SO 167 0 min 0 W/m 3,5 C 4,2 C 12,9 km/h (3 Bft)
28.12.2017 01:15 4,2 C 95 % 982,6 hPa 0,0 l/m 7,7 km/h (2 Bft) S 182 0 min 0 W/m 3,5 C 3,0 C 11,3 km/h (2 Bft)
28.12.2017 01:18 4,3 C 95 % 982,6 hPa 0,0 l/m 8,0 km/h (2 Bft) S-SO 160 0 min 0 W/m 3,6 C 2,9 C 11,3 km/h (2 Bft)
28.12.2017 01:21 4,3 C 95 % 982,7 hPa 0,0 l/m 7,3 km/h (2 Bft) S 184 0 min 0 W/m 3,6 C 3,5 C 11,3 km/h (2 Bft)
28.12.2017 01:24 4,3 C 95 % 982,7 hPa 0,0 l/m 5,6 km/h (2 Bft) S-SO 168 0 min 0 W/m 3,6 C 4,3 C 9,7 km/h (2 Bft)
28.12.2017 01:27 4,3 C 95 % 982,7 hPa 0,0 l/m 6,4 km/h (2 Bft) SW 233 0 min 0 W/m 3,6 C 4,3 C 14,5 km/h (3 Bft)
28.12.2017 01:30 4,4 C 95 % 982,6 hPa 0,0 l/m 6,7 km/h (2 Bft) S 171 0 min 0 W/m 3,7 C 4,1 C 11,3 km/h (2 Bft)
28.12.2017 01:33 4,4 C 95 % 982,6 hPa 0,0 l/m 7,3 km/h (2 Bft) S 184 0 min 0 W/m 3,7 C 3,6 C 14,5 km/h (3 Bft)
28.12.2017 01:36 4,4 C 95 % 982,7 hPa 0,0 l/m 7,7 km/h (2 Bft) S 180 0 min 0 W/m 3,7 C 3,2 C 14,5 km/h (3 Bft)
28.12.2017 01:39 4,5 C 95 % 982,7 hPa 0,0 l/m 6,2 km/h (2 Bft) S-SW 205 0 min 0 W/m 3,8 C 4,5 C 12,9 km/h (3 Bft)
28.12.2017 01:42 4,5 C 95 % 982,7 hPa 0,0 l/m 6,7 km/h (2 Bft) S 173 0 min 0 W/m 3,8 C 4,2 C 14,5 km/h (3 Bft)
28.12.2017 01:45 4,6 C 95 % 982,7 hPa 0,0 l/m 8,5 km/h (2 Bft) SW 215 0 min 0 W/m 3,9 C 2,8 C 14,5 km/h (3 Bft)
28.12.2017 01:48 4,6 C 95 % 982,8 hPa 0,0 l/m 8,6 km/h (2 Bft) S-SW 207 0 min 0 W/m 3,9 C 2,7 C 16,1 km/h (3 Bft)
28.12.2017 01:51 4,6 C 95 % 982,8 hPa 0,0 l/m 10,1 km/h (2 Bft) SW 223 0 min 0 W/m 3,9 C 1,6 C 14,5 km/h (3 Bft)
28.12.2017 01:54 4,6 C 95 % 982,9 hPa 0,0 l/m 9,7 km/h (2 Bft) SW 227 0 min 0 W/m 3,9 C 1,8 C 17,7 km/h (3 Bft)
28.12.2017 01:57 4,6 C 95 % 983,0 hPa 0,0 l/m 11,0 km/h (2 Bft) SW 215 0 min 0 W/m 3,9 C 0,9 C 20,9 km/h (4 Bft)
28.12.2017 02:00 4,6 C 95 % 983,1 hPa 0,0 l/m 7,9 km/h (2 Bft) W-SW 241 0 min 0 W/m 3,9 C 3,3 C 14,5 km/h (3 Bft)
28.12.2017 02:03 4,6 C 95 % 983,0 hPa 0,0 l/m 10,5 km/h (2 Bft) W-NW 284 0 min 0 W/m 3,9 C 1,3 C 19,3 km/h (3 Bft)
28.12.2017 02:06 4,6 C 95 % 983,1 hPa 0,0 l/m 6,5 km/h (2 Bft) W 271 0 min 0 W/m 3,9 C 4,5 C 12,9 km/h (3 Bft)
28.12.2017 02:09 4,6 C 95 % 983,2 hPa 0,0 l/m 5,8 km/h (2 Bft) W 273 0 min 0 W/m 3,9 C 4,6 C 9,7 km/h (2 Bft)
28.12.2017 02:12 4,6 C 95 % 983,2 hPa 0,0 l/m 6,4 km/h (2 Bft) W 268 0 min 0 W/m 3,9 C 4,6 C 11,3 km/h (2 Bft)
28.12.2017 02:15 4,5 C 95 % 983,3 hPa 0,0 l/m 8,1 km/h (2 Bft) W 281 0 min 0 W/m 3,8 C 3,0 C 16,1 km/h (3 Bft)
28.12.2017 02:18 4,5 C 95 % 983,3 hPa 0,0 l/m 7,8 km/h (2 Bft) W-SW 254 0 min 0 W/m 3,8 C 3,2 C 12,9 km/h (3 Bft)
28.12.2017 02:21 4,4 C 95 % 983,3 hPa 0,0 l/m 6,4 km/h (2 Bft) W-SW 242 0 min 0 W/m 3,7 C 4,4 C 14,5 km/h (3 Bft)
28.12.2017 02:24 4,4 C 95 % 983,3 hPa 0,0 l/m 5,9 km/h (2 Bft) W-NW 283 0 min 0 W/m 3,7 C 4,4 C 11,3 km/h (2 Bft)
28.12.2017 02:27 4,3 C 95 % 983,4 hPa 0,0 l/m 6,4 km/h (2 Bft) W 281 0 min 0 W/m 3,6 C 4,3 C 12,9 km/h (3 Bft)
28.12.2017 02:30 4,3 C 95 % 983,4 hPa 0,0 l/m 5,5 km/h (2 Bft) W 279 0 min 0 W/m 3,6 C 4,3 C 11,3 km/h (2 Bft)
28.12.2017 02:33 4,3 C 95 % 983,5 hPa 0,0 l/m 5,4 km/h (2 Bft) W-NW 283 0 min 0 W/m 3,6 C 4,3 C 11,3 km/h (2 Bft)
28.12.2017 02:36 4,3 C 95 % 983,5 hPa 0,0 l/m 10,3 km/h (2 Bft) N-NW 337 0 min 0 W/m 3,6 C 1,1 C 19,3 km/h (3 Bft)
28.12.2017 02:39 4,3 C 95 % 983,6 hPa 0,0 l/m 14,5 km/h (3 Bft) NW 306 0 min 0 W/m 3,6 C -1,5 C 24,1 km/h (4 Bft)
28.12.2017 02:42 4,3 C 95 % 983,7 hPa 0,0 l/m 10,8 km/h (2 Bft) W 281 0 min 0 W/m 3,6 C 0,7 C 19,3 km/h (3 Bft)
28.12.2017 02:45 4,3 C 95 % 983,7 hPa 0,0 l/m 13,9 km/h (3 Bft) NW 325 0 min 0 W/m 3,6 C -1,2 C 35,4 km/h (5 Bft)
28.12.2017 02:48 4,3 C 95 % 983,7 hPa 0,0 l/m 16,6 km/h (3 Bft) NW 325 0 min 0 W/m 3,6 C -2,6 C 27,4 km/h (5 Bft)
28.12.2017 02:51 4,3 C 95 % 983,8 hPa 0,0 l/m 16,9 km/h (3 Bft) NW 315 0 min 0 W/m 3,6 C -2,7 C 27,4 km/h (5 Bft)
28.12.2017 02:54 4,3 C 95 % 983,8 hPa 0,0 l/m 14,2 km/h (3 Bft) N 360 0 min 0 W/m 3,6 C -1,3 C 25,7 km/h (4 Bft)
28.12.2017 02:57 4,2 C 95 % 983,9 hPa 0,0 l/m 17,7 km/h (3 Bft) N-NW 338 0 min 0 W/m 3,5 C -3,2 C 30,6 km/h (5 Bft)
28.12.2017 03:00 4,2 C 95 % 983,9 hPa 0,0 l/m 18,0 km/h (3 Bft) N-NW 348 0 min 0 W/m 3,5 C -3,4 C 27,4 km/h (5 Bft)
28.12.2017 03:03 4,3 C 95 % 984,0 hPa 0,2 l/m 20,1 km/h (4 Bft) N-NW 327 0 min 0 W/m 3,6 C -4,1 C 30,6 km/h (5 Bft)
28.12.2017 03:06 4,2 C 95 % 984,2 hPa 0,0 l/m 19,6 km/h (3 Bft) N-NO 29 0 min 0 W/m 3,5 C -4,0 C 30,6 km/h (5 Bft)
28.12.2017 03:09 4,2 C 95 % 984,2 hPa 0,0 l/m 21,3 km/h (4 Bft) N-NW 338 0 min 0 W/m 3,5 C -4,7 C 33,8 km/h (5 Bft)
28.12.2017 03:12 4,2 C 95 % 984,3 hPa 0,0 l/m 19,2 km/h (3 Bft) N 355 0 min 0 W/m 3,5 C -3,9 C 38,6 km/h (6 Bft)
28.12.2017 03:15 4,3 C 95 % 984,3 hPa 0,0 l/m 18,5 km/h (3 Bft) N-NW 338 0 min 0 W/m 3,6 C -3,4 C 30,6 km/h (5 Bft)
28.12.2017 03:18 4,2 C 95 % 984,3 hPa 0,0 l/m 16,8 km/h (3 Bft) N-NW 330 0 min 0 W/m 3,5 C -2,8 C 27,4 km/h (5 Bft)
28.12.2017 03:21 4,2 C 95 % 984,2 hPa 0,0 l/m 17,6 km/h (3 Bft) NW 321 0 min 0 W/m 3,5 C -3,2 C 27,4 km/h (5 Bft)
28.12.2017 03:24 4,2 C 95 % 984,2 hPa 0,0 l/m 17,7 km/h (3 Bft) N-NW 346 0 min 0 W/m 3,5 C -3,2 C 29,0 km/h (5 Bft)
28.12.2017 03:27 4,2 C 95 % 984,2 hPa 0,0 l/m 16,7 km/h (3 Bft) N-NW 329 0 min 0 W/m 3,5 C -2,7 C 27,4 km/h (5 Bft)
28.12.2017 03:30 4,2 C 95 % 984,1 hPa 0,0 l/m 15,9 km/h (3 Bft) N 355 0 min 0 W/m 3,5 C -2,4 C 25,7 km/h (4 Bft)
28.12.2017 03:33 4,2 C 95 % 984,2 hPa 0,0 l/m 14,8 km/h (3 Bft) NW 322 0 min 0 W/m 3,5 C -1,8 C 29,0 km/h (5 Bft)
28.12.2017 03:36 4,2 C 95 % 984,2 hPa 0,0 l/m 13,4 km/h (3 Bft) N-NW 330 0 min 0 W/m 3,5 C -1,0 C 22,5 km/h (4 Bft)
28.12.2017 03:39 4,2 C 95 % 984,1 hPa 0,0 l/m 12,2 km/h (2 Bft) N-NO 15 0 min 0 W/m 3,5 C -0,3 C 20,9 km/h (4 Bft)
28.12.2017 03:42 4,2 C 94 % 984,3 hPa 0,0 l/m 15,8 km/h (3 Bft) NW 319 0 min 0 W/m 3,3 C -2,3 C 25,7 km/h (4 Bft)
28.12.2017 03:45 4,2 C 94 % 984,4 hPa 0,0 l/m 19,4 km/h (3 Bft) N-NW 344 0 min 0 W/m 3,3 C -4,0 C 30,6 km/h (5 Bft)
28.12.2017 03:48 4,3 C 94 % 984,5 hPa 0,0 l/m 18,3 km/h (3 Bft) NW 316 0 min 0 W/m 3,4 C -3,4 C 29,0 km/h (5 Bft)
28.12.2017 03:51 4,3 C 94 % 984,6 hPa 0,0 l/m 15,8 km/h (3 Bft) NW 325 0 min 0 W/m 3,4 C -2,2 C 24,1 km/h (4 Bft)
28.12.2017 03:54 4,3 C 94 % 984,6 hPa 0,0 l/m 15,5 km/h (3 Bft) N-NW 339 0 min 0 W/m 3,4 C -2,0 C 33,8 km/h (5 Bft)
28.12.2017 03:57 4,3 C 94 % 984,6 hPa 0,0 l/m 19,2 km/h (3 Bft) N-NW 346 0 min 0 W/m 3,4 C -3,7 C 30,6 km/h (5 Bft)
28.12.2017 04:00 4,3 C 94 % 984,7 hPa 0,0 l/m 16,7 km/h (3 Bft) N 350 0 min 0 W/m 3,4 C -2,6 C 25,7 km/h (4 Bft)
28.12.2017 04:03 4,2 C 94 % 984,8 hPa 0,0 l/m 16,9 km/h (3 Bft) NW 323 0 min 0 W/m 3,3 C -2,8 C 29,0 km/h (5 Bft)
28.12.2017 04:06 4,2 C 93 % 984,9 hPa 0,0 l/m 16,4 km/h (3 Bft) N-NW 330 0 min 0 W/m 3,2 C -2,6 C 27,4 km/h (5 Bft)
28.12.2017 04:09 4,3 C 93 % 985,0 hPa 0,0 l/m 13,9 km/h (3 Bft) N-NW 338 0 min 0 W/m 3,3 C -1,2 C 22,5 km/h (4 Bft)
28.12.2017 04:12 4,3 C 93 % 985,1 hPa 0,0 l/m 13,1 km/h (3 Bft) W-NW 296 0 min 0 W/m 3,3 C -0,7 C 24,1 km/h (4 Bft)
28.12.2017 04:15 4,3 C 93 % 985,2 hPa 0,0 l/m 12,1 km/h (2 Bft) W 266 0 min 0 W/m 3,3 C -0,1 C 22,5 km/h (4 Bft)
28.12.2017 04:18 4,3 C 93 % 985,2 hPa 0,0 l/m 14,6 km/h (3 Bft) NW 313 0 min 0 W/m 3,3 C -1,6 C 22,5 km/h (4 Bft)
28.12.2017 04:21 4,3 C 93 % 985,2 hPa 0,0 l/m 14,0 km/h (3 Bft) W 277 0 min 0 W/m 3,3 C -1,2 C 22,5 km/h (4 Bft)
28.12.2017 04:24 4,3 C 92 % 985,3 hPa 0,0 l/m 12,4 km/h (2 Bft) N-NW 339 0 min 0 W/m 3,1 C -0,3 C 20,9 km/h (4 Bft)
28.12.2017 04:27 4,4 C 92 % 985,3 hPa 0,0 l/m 10,1 km/h (2 Bft) NW 321 0 min 0 W/m 3,2 C 1,3 C 19,3 km/h (3 Bft)
28.12.2017 04:30 4,4 C 92 % 985,3 hPa 0,0 l/m 13,2 km/h (3 Bft) NW 314 0 min 0 W/m 3,2 C -0,7 C 22,5 km/h (4 Bft)
28.12.2017 04:33 4,4 C 92 % 985,3 hPa 0,0 l/m 13,2 km/h (3 Bft) W-NW 301 0 min 0 W/m 3,2 C -0,7 C 20,9 km/h (4 Bft)
28.12.2017 04:36 4,4 C 92 % 985,3 hPa 0,0 l/m 11,1 km/h (2 Bft) N-NW 336 0 min 0 W/m 3,2 C 0,6 C 19,3 km/h (3 Bft)
28.12.2017 04:39 4,4 C 91 % 985,3 hPa 0,0 l/m 8,5 km/h (2 Bft) N-NW 333 0 min 0 W/m 3,1 C 2,6 C 17,7 km/h (3 Bft)
28.12.2017 04:42 4,4 C 91 % 985,3 hPa 0,0 l/m 8,7 km/h (2 Bft) NW 325 0 min 0 W/m 3,1 C 2,4 C 16,1 km/h (3 Bft)
28.12.2017 04:45 4,4 C 91 % 985,4 hPa 0,0 l/m 6,7 km/h (2 Bft) NW 319 0 min 0 W/m 3,1 C 4,1 C 12,9 km/h (3 Bft)
28.12.2017 04:48 4,4 C 91 % 985,5 hPa 0,0 l/m 7,3 km/h (2 Bft) NW 312 0 min 0 W/m 3,1 C 3,6 C 14,5 km/h (3 Bft)
28.12.2017 04:51 4,3 C 91 % 985,6 hPa 0,0 l/m 7,2 km/h (2 Bft) NW 309 0 min 0 W/m 3,0 C 3,6 C 17,7 km/h (3 Bft)
28.12.2017 04:54 4,3 C 91 % 985,6 hPa 0,0 l/m 5,1 km/h (1 Bft) N-NW 336 0 min 0 W/m 3,0 C 4,3 C 11,3 km/h (2 Bft)
28.12.2017 04:57 4,3 C 91 % 985,7 hPa 0,0 l/m 6,9 km/h (2 Bft) N-NW 328 0 min 0 W/m 3,0 C 3,9 C 14,5 km/h (3 Bft)
28.12.2017 05:00 4,3 C 91 % 985,7 hPa 0,0 l/m 5,4 km/h (2 Bft) W-NW 302 0 min 0 W/m 3,0 C 4,3 C 11,3 km/h (2 Bft)
28.12.2017 05:03 4,3 C 91 % 985,7 hPa 0,0 l/m 5,8 km/h (2 Bft) W 270 0 min 0 W/m 3,0 C 4,3 C 14,5 km/h (3 Bft)
28.12.2017 05:06 4,3 C 91 % 985,8 hPa 0,0 l/m 4,0 km/h (1 Bft) W-NW 283 0 min 0 W/m 3,0 C 4,3 C 14,5 km/h (3 Bft)
28.12.2017 05:09 4,3 C 91 % 985,8 hPa 0,0 l/m 4,0 km/h (1 Bft) W 279 0 min 0 W/m 3,0 C 4,3 C 11,3 km/h (2 Bft)
28.12.2017 05:12 4,3 C 91 % 985,9 hPa 0,0 l/m 4,5 km/h (1 Bft) W-NW 283 0 min 0 W/m 3,0 C 4,3 C 11,3 km/h (2 Bft)
28.12.2017 05:15 4,3 C 91 % 986,0 hPa 0,0 l/m 4,7 km/h (1 Bft) W 268 0 min 0 W/m 3,0 C 4,3 C 12,9 km/h (3 Bft)
28.12.2017 05:18 4,3 C 91 % 986,0 hPa 0,0 l/m 4,9 km/h (1 Bft) W 275 0 min 0 W/m 3,0 C 4,3 C 9,7 km/h (2 Bft)
28.12.2017 05:21 4,3 C 91 % 986,1 hPa 0,0 l/m 6,9 km/h (2 Bft) W-NW 285 0 min 0 W/m 3,0 C 3,9 C 12,9 km/h (3 Bft)
28.12.2017 05:24 4,3 C 91 % 986,1 hPa 0,0 l/m 8,3 km/h (2 Bft) W-NW 285 0 min 0 W/m 3,0 C 2,6 C 14,5 km/h (3 Bft)
28.12.2017 05:27 4,3 C 91 % 986,2 hPa 0,0 l/m 6,7 km/h (2 Bft) W 275 0 min 0 W/m 3,0 C 4,0 C 14,5 km/h (3 Bft)
28.12.2017 05:30 4,4 C 91 % 986,2 hPa 0,0 l/m 5,9 km/h (2 Bft) N 355 0 min 0 W/m 3,1 C 4,4 C 11,3 km/h (2 Bft)
28.12.2017 05:33 4,4 C 91 % 986,2 hPa 0,0 l/m 9,8 km/h (2 Bft) SW 225 0 min 0 W/m 3,1 C 1,6 C 19,3 km/h (3 Bft)
28.12.2017 05:36 4,4 C 91 % 986,4 hPa 0,0 l/m 6,9 km/h (2 Bft) NW 306 0 min 0 W/m 3,1 C 4,0 C 16,1 km/h (3 Bft)
28.12.2017 05:39 4,4 C 91 % 986,3 hPa 0,0 l/m 9,4 km/h (2 Bft) N-NW 327 0 min 0 W/m 3,1 C 1,9 C 17,7 km/h (3 Bft)
28.12.2017 05:42 4,4 C 91 % 986,5 hPa 0,0 l/m 16,6 km/h (3 Bft) N 5 0 min 0 W/m 3,1 C -2,5 C 27,4 km/h (5 Bft)
28.12.2017 05:45 4,4 C 91 % 986,5 hPa 0,0 l/m 15,9 km/h (3 Bft) N 355 0 min 0 W/m 3,1 C -2,1 C 25,7 km/h (4 Bft)
28.12.2017 05:48 4,3 C 91 % 986,4 hPa 0,0 l/m 14,1 km/h (3 Bft) N 350 0 min 0 W/m 3,0 C -1,3 C 24,1 km/h (4 Bft)
28.12.2017 05:51 4,2 C 91 % 986,3 hPa 0,0 l/m 15,3 km/h (3 Bft) W-NW 301 0 min 0 W/m 2,9 C -2,0 C 24,1 km/h (4 Bft)
28.12.2017 05:54 4,1 C 91 % 986,3 hPa 0,0 l/m 13,1 km/h (3 Bft) NW 319 0 min 0 W/m 2,8 C -1,0 C 22,5 km/h (4 Bft)
28.12.2017 05:57 4,1 C 91 % 986,3 hPa 0,0 l/m 11,7 km/h (2 Bft) NW 308 0 min 0 W/m 2,8 C -0,1 C 20,9 km/h (4 Bft)
28.12.2017 06:00 4,0 C 91 % 986,4 hPa 0,0 l/m 13,6 km/h (3 Bft) N-NW 333 0 min 0 W/m 2,7 C -1,4 C 22,5 km/h (4 Bft)
28.12.2017 06:03 4,0 C 91 % 986,5 hPa 0,0 l/m 8,4 km/h (2 Bft) NW 313 0 min 0 W/m 2,7 C 2,2 C 16,1 km/h (3 Bft)
28.12.2017 06:06 4,0 C 91 % 986,6 hPa 0,0 l/m 6,9 km/h (2 Bft) W-NW 290 0 min 0 W/m 2,7 C 3,5 C 14,5 km/h (3 Bft)
28.12.2017 06:09 4,0 C 91 % 986,7 hPa 0,0 l/m 4,6 km/h (1 Bft) W-SW 246 0 min 0 W/m 2,7 C 4,0 C 11,3 km/h (2 Bft)
28.12.2017 06:12 4,0 C 91 % 986,7 hPa 0,0 l/m 4,8 km/h (1 Bft) W-NW 285 0 min 0 W/m 2,7 C 4,0 C 12,9 km/h (3 Bft)
28.12.2017 06:15 4,0 C 91 % 986,8 hPa 0,0 l/m 7,2 km/h (2 Bft) W 261 0 min 0 W/m 2,7 C 3,3 C 14,5 km/h (3 Bft)
28.12.2017 06:18 4,1 C 91 % 986,8 hPa 0,0 l/m 5,7 km/h (2 Bft) W 269 0 min 0 W/m 2,8 C 4,1 C 12,9 km/h (3 Bft)
28.12.2017 06:21 4,1 C 91 % 986,9 hPa 0,0 l/m 6,3 km/h (2 Bft) W 267 0 min 0 W/m 2,8 C 4,1 C 12,9 km/h (3 Bft)
28.12.2017 06:24 4,1 C 90 % 986,9 hPa 0,0 l/m 4,2 km/h (1 Bft) W 270 0 min 0 W/m 2,6 C 4,1 C 11,3 km/h (2 Bft)
28.12.2017 06:27 4,1 C 90 % 986,8 hPa 0,0 l/m 5,7 km/h (2 Bft) W-NW 286 0 min 0 W/m 2,6 C 4,1 C 12,9 km/h (3 Bft)
28.12.2017 06:30 4,1 C 90 % 986,9 hPa 0,0 l/m 4,1 km/h (1 Bft) W 259 0 min 0 W/m 2,6 C 4,1 C 11,3 km/h (2 Bft)
28.12.2017 06:33 4,1 C 90 % 987,0 hPa 0,0 l/m 4,3 km/h (1 Bft) W 265 0 min 0 W/m 2,6 C 4,1 C 9,7 km/h (2 Bft)
28.12.2017 06:36 4,1 C 90 % 987,1 hPa 0,0 l/m 5,0 km/h (1 Bft) W 262 0 min 0 W/m 2,6 C 4,1 C 9,7 km/h (2 Bft)
28.12.2017 06:39 4,2 C 90 % 987,2 hPa 0,0 l/m 6,1 km/h (2 Bft) W-SW 237 0 min 0 W/m 2,7 C 4,2 C 12,9 km/h (3 Bft)
28.12.2017 06:42 4,2 C 90 % 987,3 hPa 0,0 l/m 6,4 km/h (2 Bft) SW 228 0 min 0 W/m 2,7 C 4,2 C 9,7 km/h (2 Bft)
28.12.2017 06:45 4,2 C 90 % 987,4 hPa 0,0 l/m 8,1 km/h (2 Bft) W-SW 252 0 min 0 W/m 2,7 C 2,7 C 14,5 km/h (3 Bft)
28.12.2017 06:48 4,2 C 90 % 987,4 hPa 0,0 l/m 4,9 km/h (1 Bft) W-SW 252 0 min 0 W/m 2,7 C 4,2 C 8,0 km/h (2 Bft)
28.12.2017 06:51 4,2 C 90 % 987,3 hPa 0,0 l/m 6,6 km/h (2 Bft) W-SW 238 0 min 0 W/m 2,7 C 4,0 C 12,9 km/h (3 Bft)
28.12.2017 06:54 4,3 C 90 % 987,3 hPa 0,0 l/m 6,9 km/h (2 Bft) W 269 0 min 0 W/m 2,8 C 3,9 C 12,9 km/h (3 Bft)
28.12.2017 06:57 4,3 C 90 % 987,3 hPa 0,0 l/m 5,4 km/h (2 Bft) W-SW 241 0 min 0 W/m 2,8 C 4,3 C 12,9 km/h (3 Bft)
28.12.2017 07:00 4,3 C 90 % 987,4 hPa 0,0 l/m 3,9 km/h (1 Bft) W 261 0 min 0 W/m 2,8 C 4,3 C 11,3 km/h (2 Bft)
28.12.2017 07:03 4,3 C 90 % 987,3 hPa 0,0 l/m 3,8 km/h (1 Bft) W 261 0 min 0 W/m 2,8 C 4,3 C 9,7 km/h (2 Bft)
28.12.2017 07:06 4,3 C 90 % 987,4 hPa 0,0 l/m 3,9 km/h (1 Bft) W 259 0 min 0 W/m 2,8 C 4,3 C 6,4 km/h (2 Bft)
28.12.2017 07:09 4,3 C 90 % 987,3 hPa 0,0 l/m 4,2 km/h (1 Bft) W 259 0 min 0 W/m 2,8 C 4,3 C 6,4 km/h (2 Bft)
28.12.2017 07:12 4,3 C 90 % 987,4 hPa 0,0 l/m 3,9 km/h (1 Bft) W 259 0 min 0 W/m 2,8 C 4,3 C 6,4 km/h (2 Bft)
28.12.2017 07:15 4,4 C 90 % 987,5 hPa 0,0 l/m 3,6 km/h (1 Bft) W-SW 258 0 min 0 W/m 2,9 C 4,4 C 6,4 km/h (2 Bft)
28.12.2017 07:18 4,4 C 90 % 987,5 hPa 0,0 l/m 4,6 km/h (1 Bft) W 259 0 min 0 W/m 2,9 C 4,4 C 9,7 km/h (2 Bft)
28.12.2017 07:21 4,4 C 91 % 987,6 hPa 0,0 l/m 7,3 km/h (2 Bft) W 273 0 min 0 W/m 3,1 C 3,6 C 14,5 km/h (3 Bft)
28.12.2017 07:24 4,6 C 91 % 987,6 hPa 0,0 l/m 10,9 km/h (2 Bft) W-NW 295 0 min 0 W/m 3,3 C 1,0 C 20,9 km/h (4 Bft)
28.12.2017 07:27 4,7 C 91 % 987,7 hPa 0,0 l/m 12,7 km/h (3 Bft) W 269 0 min 0 W/m 3,4 C -0,0 C 19,3 km/h (3 Bft)
28.12.2017 07:30 4,8 C 91 % 987,7 hPa 0,0 l/m 10,6 km/h (2 Bft) W-SW 248 0 min 0 W/m 3,5 C 1,4 C 19,3 km/h (3 Bft)
28.12.2017 07:33 4,8 C 91 % 987,8 hPa 0,0 l/m 11,0 km/h (2 Bft) W-SW 252 0 min 0 W/m 3,5 C 1,2 C 19,3 km/h (3 Bft)
28.12.2017 07:36 4,9 C 90 % 987,8 hPa 0,0 l/m 13,7 km/h (3 Bft) W-NW 285 0 min 0 W/m 3,4 C -0,4 C 24,1 km/h (4 Bft)
28.12.2017 07:39 4,9 C 90 % 987,9 hPa 0,0 l/m 12,0 km/h (2 Bft) W 267 0 min 0 W/m 3,4 C 0,6 C 20,9 km/h (4 Bft)
28.12.2017 07:42 5,0 C 90 % 987,9 hPa 0,0 l/m 14,3 km/h (3 Bft) W-NW 295 0 min 0 W/m 3,5 C -0,6 C 24,1 km/h (4 Bft)
28.12.2017 07:45 5,1 C 89 % 988,0 hPa 0,0 l/m 5,9 km/h (2 Bft) W 266 0 min 0 W/m 3,4 C 5,1 C 17,7 km/h (3 Bft)
28.12.2017 07:48 5,1 C 89 % 988,0 hPa 0,0 l/m 8,5 km/h (2 Bft) W-SW 257 0 min 0 W/m 3,4 C 3,3 C 16,1 km/h (3 Bft)
28.12.2017 07:51 5,1 C 89 % 988,0 hPa 0,0 l/m 8,1 km/h (2 Bft) W-SW 255 0 min 0 W/m 3,4 C 3,6 C 17,7 km/h (3 Bft)
28.12.2017 07:54 5,2 C 89 % 988,1 hPa 0,0 l/m 10,5 km/h (2 Bft) W-SW 248 0 min 0 W/m 3,5 C 1,9 C 19,3 km/h (3 Bft)
28.12.2017 07:57 5,2 C 88 % 988,1 hPa 0,0 l/m 12,5 km/h (2 Bft) W 281 0 min 0 W/m 3,4 C 0,7 C 22,5 km/h (4 Bft)
28.12.2017 08:00 5,1 C 88 % 988,1 hPa 0,0 l/m 9,3 km/h (2 Bft) SW 222 0 min 0 W/m 3,3 C 2,7 C 16,1 km/h (3 Bft)
28.12.2017 08:03 5,1 C 88 % 988,2 hPa 0,0 l/m 10,5 km/h (2 Bft) W 263 0 min 0 W/m 3,3 C 1,8 C 22,5 km/h (4 Bft)
28.12.2017 08:06 5,1 C 88 % 988,2 hPa 0,0 l/m 12,9 km/h (3 Bft) W-SW 252 0 min 0 W/m 3,3 C 0,3 C 24,1 km/h (4 Bft)
28.12.2017 08:09 5,1 C 88 % 988,3 hPa 0,0 l/m 10,4 km/h (2 Bft) W 262 0 min 0 W/m 3,3 C 1,9 C 19,3 km/h (3 Bft)
28.12.2017 08:12 5,1 C 88 % 988,3 hPa 0,0 l/m 10,6 km/h (2 Bft) W 264 0 min 0 W/m 3,3 C 1,8 C 20,9 km/h (4 Bft)
28.12.2017 08:15 5,1 C 88 % 988,4 hPa 0,0 l/m 8,6 km/h (2 Bft) W 269 0 min 0 W/m 3,3 C 3,2 C 17,7 km/h (3 Bft)
28.12.2017 08:18 5,1 C 88 % 988,4 hPa 0,0 l/m 6,7 km/h (2 Bft) W-SW 242 0 min 0 W/m 3,3 C 4,9 C 11,3 km/h (2 Bft)
28.12.2017 08:21 5,0 C 88 % 988,5 hPa 0,0 l/m 6,8 km/h (2 Bft) W-SW 244 0 min 0 W/m 3,2 C 4,7 C 12,9 km/h (3 Bft)
28.12.2017 08:24 5,0 C 88 % 988,5 hPa 0,0 l/m 7,8 km/h (2 Bft) W-SW 243 0 min 0 W/m 3,2 C 3,8 C 14,5 km/h (3 Bft)
28.12.2017 08:27 5,0 C 89 % 988,5 hPa 0,0 l/m 5,1 km/h (1 Bft) W-SW 257 0 min 0 W/m 3,3 C 5,0 C 9,7 km/h (2 Bft)
28.12.2017 08:30 4,9 C 89 % 988,6 hPa 0,0 l/m 5,6 km/h (2 Bft) W-SW 255 0 min 0 W/m 3,2 C 4,9 C 9,7 km/h (2 Bft)
28.12.2017 08:33 4,9 C 89 % 988,6 hPa 0,0 l/m 6,3 km/h (2 Bft) W 267 0 min 0 W/m 3,2 C 4,9 C 12,9 km/h (3 Bft)
28.12.2017 08:36 5,0 C 89 % 988,8 hPa 0,0 l/m 10,7 km/h (2 Bft) W 261 0 min 0 W/m 3,3 C 1,6 C 19,3 km/h (3 Bft)
28.12.2017 08:39 4,9 C 89 % 988,8 hPa 0,0 l/m 12,9 km/h (3 Bft) W 273 0 min 0 W/m 3,2 C 0,1 C 22,5 km/h (4 Bft)
28.12.2017 08:42 4,8 C 88 % 988,9 hPa 0,0 l/m 13,0 km/h (3 Bft) W-SW 257 0 min 0 W/m 3,0 C -0,1 C 24,1 km/h (4 Bft)
28.12.2017 08:45 4,8 C 88 % 988,8 hPa 0,0 l/m 7,2 km/h (2 Bft) W 279 0 min 0 W/m 3,0 C 4,1 C 16,1 km/h (3 Bft)
28.12.2017 08:48 4,7 C 88 % 988,9 hPa 0,0 l/m 5,6 km/h (2 Bft) NW 304 0 min 0 W/m 2,9 C 4,7 C 12,9 km/h (3 Bft)
28.12.2017 08:51 4,7 C 88 % 988,9 hPa 0,0 l/m 8,7 km/h (2 Bft) W 280 0 min 0 W/m 2,9 C 2,7 C 16,1 km/h (3 Bft)
28.12.2017 08:54 4,7 C 88 % 988,9 hPa 0,0 l/m 8,3 km/h (2 Bft) W-NW 292 0 min 0 W/m 2,9 C 3,0 C 12,9 km/h (3 Bft)
28.12.2017 08:57 4,7 C 88 % 988,9 hPa 0,0 l/m 7,6 km/h (2 Bft) W 260 0 min 0 W/m 2,9 C 3,6 C 12,9 km/h (3 Bft)
28.12.2017 09:00 4,7 C 89 % 988,9 hPa 0,0 l/m 9,5 km/h (2 Bft) W-SW 250 0 min 0 W/m 3,0 C 2,1 C 19,3 km/h (3 Bft)
28.12.2017 09:03 4,7 C 89 % 989,0 hPa 0,0 l/m 10,0 km/h (2 Bft) W-SW 237 0 min 0 W/m 3,0 C 1,7 C 17,7 km/h (3 Bft)
28.12.2017 09:06 4,8 C 89 % 989,1 hPa 0,0 l/m 12,6 km/h (3 Bft) W-SW 247 0 min 5 W/m 3,1 C 0,2 C 20,9 km/h (4 Bft)
28.12.2017 09:09 4,9 C 89 % 989,1 hPa 0,0 l/m 12,1 km/h (2 Bft) W-SW 237 0 min 7 W/m 3,2 C 0,6 C 20,9 km/h (4 Bft)
28.12.2017 09:12 4,9 C 89 % 989,1 hPa 0,0 l/m 14,7 km/h (3 Bft) SW 223 0 min 9 W/m 3,2 C -0,9 C 25,7 km/h (4 Bft)
28.12.2017 09:15 5,0 C 88 % 989,1 hPa 0,0 l/m 13,4 km/h (3 Bft) W 271 0 min 9 W/m 3,2 C -0,1 C 25,7 km/h (4 Bft)
28.12.2017 09:18 5,1 C 88 % 989,2 hPa 0,0 l/m 13,2 km/h (3 Bft) W-NW 291 0 min 9 W/m 3,3 C 0,2 C 22,5 km/h (4 Bft)
28.12.2017 09:21 5,1 C 87 % 989,2 hPa 0,0 l/m 14,6 km/h (3 Bft) W-SW 256 0 min 9 W/m 3,1 C -0,6 C 24,1 km/h (4 Bft)
28.12.2017 09:24 5,1 C 87 % 989,2 hPa 0,0 l/m 16,4 km/h (3 Bft) W-SW 252 0 min 11 W/m 3,1 C -1,5 C 25,7 km/h (4 Bft)
28.12.2017 09:27 5,1 C 87 % 989,2 hPa 0,0 l/m 14,0 km/h (3 Bft) SW 222 0 min 11 W/m 3,1 C -0,3 C 24,1 km/h (4 Bft)
28.12.2017 09:30 5,1 C 87 % 989,3 hPa 0,0 l/m 14,7 km/h (3 Bft) W-NW 285 0 min 11 W/m 3,1 C -0,6 C 25,7 km/h (4 Bft)
28.12.2017 09:33 5,2 C 87 % 989,3 hPa 0,0 l/m 13,5 km/h (3 Bft) W 259 0 min 12 W/m 3,2 C 0,1 C 24,1 km/h (4 Bft)
28.12.2017 09:36 5,2 C 87 % 989,4 hPa 0,0 l/m 13,5 km/h (3 Bft) W-SW 249 0 min 12 W/m 3,2 C 0,1 C 20,9 km/h (4 Bft)
28.12.2017 09:39 5,2 C 87 % 989,4 hPa 0,0 l/m 14,3 km/h (3 Bft) W 269 0 min 12 W/m 3,2 C -0,3 C 27,4 km/h (5 Bft)
28.12.2017 09:42 5,2 C 87 % 989,3 hPa 0,0 l/m 13,9 km/h (3 Bft) W 261 0 min 12 W/m 3,2 C -0,1 C 22,5 km/h (4 Bft)
28.12.2017 09:45 5,2 C 87 % 989,3 hPa 0,0 l/m 13,9 km/h (3 Bft) W 265 0 min 12 W/m 3,2 C -0,1 C 22,5 km/h (4 Bft)
28.12.2017 09:48 5,2 C 87 % 989,3 hPa 0,0 l/m 16,0 km/h (3 Bft) W 276 0 min 12 W/m 3,2 C -1,2 C 22,5 km/h (4 Bft)
28.12.2017 09:51 5,2 C 87 % 989,3 hPa 0,0 l/m 15,4 km/h (3 Bft) W 267 0 min 14 W/m 3,2 C -0,9 C 22,5 km/h (4 Bft)
28.12.2017 09:54 5,2 C 86 % 989,2 hPa 0,0 l/m 15,9 km/h (3 Bft) NW 305 0 min 16 W/m 3,1 C -1,1 C 22,5 km/h (4 Bft)
28.12.2017 09:57 5,2 C 86 % 989,3 hPa 0,0 l/m 15,1 km/h (3 Bft) W-SW 246 0 min 18 W/m 3,1 C -0,7 C 24,1 km/h (4 Bft)
28.12.2017 10:00 5,2 C 86 % 989,3 hPa 0,0 l/m 16,5 km/h (3 Bft) W-NW 296 0 min 19 W/m 3,1 C -1,4 C 22,5 km/h (4 Bft)
28.12.2017 10:03 5,2 C 86 % 989,3 hPa 0,0 l/m 16,0 km/h (3 Bft) SW 232 0 min 21 W/m 3,1 C -1,2 C 25,7 km/h (4 Bft)
28.12.2017 10:06 5,2 C 86 % 989,3 hPa 0,0 l/m 14,6 km/h (3 Bft) W 259 0 min 21 W/m 3,1 C -0,5 C 24,1 km/h (4 Bft)
28.12.2017 10:09 5,2 C 86 % 989,5 hPa 0,0 l/m 10,0 km/h (2 Bft) SW 224 0 min 19 W/m 3,1 C 2,3 C 19,3 km/h (3 Bft)
28.12.2017 10:12 5,2 C 86 % 989,5 hPa 0,0 l/m 10,3 km/h (2 Bft) SW 223 0 min 18 W/m 3,1 C 2,1 C 16,1 km/h (3 Bft)
28.12.2017 10:15 5,2 C 86 % 989,6 hPa 0,0 l/m 12,9 km/h (3 Bft) W-SW 242 0 min 12 W/m 3,1 C 0,5 C 25,7 km/h (4 Bft)
28.12.2017 10:18 5,2 C 86 % 989,6 hPa 0,0 l/m 16,2 km/h (3 Bft) W-SW 244 0 min 14 W/m 3,1 C -1,3 C 22,5 km/h (4 Bft)
28.12.2017 10:21 5,2 C 87 % 989,6 hPa 0,0 l/m 16,9 km/h (3 Bft) W-SW 250 0 min 19 W/m 3,2 C -1,6 C 27,4 km/h (5 Bft)
28.12.2017 10:24 5,1 C 87 % 989,7 hPa 0,0 l/m 15,5 km/h (3 Bft) SW 233 0 min 32 W/m 3,1 C -1,1 C 29,0 km/h (5 Bft)
28.12.2017 10:27 5,1 C 87 % 989,7 hPa 0,0 l/m 12,8 km/h (3 Bft) S-SW 213 0 min 25 W/m 3,1 C 0,4 C 20,9 km/h (4 Bft)
28.12.2017 10:30 5,0 C 88 % 989,7 hPa 0,0 l/m 13,7 km/h (3 Bft) SW 234 0 min 26 W/m 3,2 C -0,2 C 19,3 km/h (3 Bft)
28.12.2017 10:33 4,9 C 88 % 989,8 hPa 0,0 l/m 9,6 km/h (2 Bft) W-SW 258 0 min 39 W/m 3,1 C 2,2 C 17,7 km/h (3 Bft)
28.12.2017 10:36 4,9 C 89 % 989,8 hPa 0,0 l/m 8,7 km/h (2 Bft) W-SW 250 0 min 25 W/m 3,2 C 2,9 C 17,7 km/h (3 Bft)
28.12.2017 10:39 4,9 C 89 % 989,8 hPa 0,0 l/m 10,6 km/h (2 Bft) W-SW 246 0 min 28 W/m 3,2 C 1,5 C 17,7 km/h (3 Bft)
28.12.2017 10:42 4,9 C 89 % 989,8 hPa 0,0 l/m 15,1 km/h (3 Bft) W 281 0 min 32 W/m 3,2 C -1,1 C 29,0 km/h (5 Bft)
28.12.2017 10:45 5,0 C 89 % 989,8 hPa 0,0 l/m 14,8 km/h (3 Bft) W-SW 250 0 min 26 W/m 3,3 C -0,8 C 25,7 km/h (4 Bft)
28.12.2017 10:48 5,0 C 89 % 989,8 hPa 0,0 l/m 16,4 km/h (3 Bft) W-SW 255 0 min 35 W/m 3,3 C -1,6 C 32,2 km/h (5 Bft)
28.12.2017 10:51 5,1 C 88 % 989,8 hPa 0,0 l/m 15,6 km/h (3 Bft) SW 221 0 min 32 W/m 3,3 C -1,1 C 27,4 km/h (5 Bft)
28.12.2017 10:54 5,2 C 88 % 989,9 hPa 0,0 l/m 11,1 km/h (2 Bft) SW 223 0 min 67 W/m 3,4 C 1,6 C 19,3 km/h (3 Bft)
28.12.2017 10:57 5,3 C 88 % 989,9 hPa 0,0 l/m 14,0 km/h (3 Bft) SW 232 0 min 91 W/m 3,5 C -0,0 C 22,5 km/h (4 Bft)
28.12.2017 11:00 5,2 C 88 % 989,9 hPa 0,0 l/m 17,7 km/h (3 Bft) S-SW 211 0 min 62 W/m 3,4 C -2,0 C 24,1 km/h (4 Bft)
28.12.2017 11:03 5,2 C 88 % 990,1 hPa 0,0 l/m 15,0 km/h (3 Bft) W 259 0 min 98 W/m 3,4 C -0,7 C 20,9 km/h (4 Bft)
28.12.2017 11:06 5,2 C 88 % 990,1 hPa 0,0 l/m 16,5 km/h (3 Bft) SW 229 0 min 95 W/m 3,4 C -1,4 C 24,1 km/h (4 Bft)
28.12.2017 11:09 5,1 C 88 % 990,1 hPa 0,0 l/m 16,0 km/h (3 Bft) SW 227 0 min 91 W/m 3,3 C -1,3 C 25,7 km/h (4 Bft)
28.12.2017 11:12 5,1 C 89 % 990,1 hPa 0,0 l/m 14,9 km/h (3 Bft) SW 221 0 min 86 W/m 3,4 C -0,8 C 29,0 km/h (5 Bft)
28.12.2017 11:15 5,1 C 89 % 990,1 hPa 0,0 l/m 15,5 km/h (3 Bft) SW 214 0 min 100 W/m 3,4 C -1,1 C 25,7 km/h (4 Bft)
28.12.2017 11:18 5,1 C 89 % 990,1 hPa 0,0 l/m 17,3 km/h (3 Bft) SW 220 0 min 74 W/m 3,4 C -1,9 C 25,7 km/h (4 Bft)
28.12.2017 11:21 5,1 C 89 % 990,1 hPa 0,0 l/m 16,4 km/h (3 Bft) S-SW 202 0 min 77 W/m 3,4 C -1,5 C 27,4 km/h (5 Bft)
28.12.2017 11:24 5,0 C 89 % 990,2 hPa 0,0 l/m 16,8 km/h (3 Bft) S-SW 211 0 min 98 W/m 3,3 C -1,8 C 25,7 km/h (4 Bft)
28.12.2017 11:27 5,0 C 89 % 990,2 hPa 0,0 l/m 18,7 km/h (3 Bft) W-SW 242 0 min 113 W/m 3,3 C -2,6 C 30,6 km/h (5 Bft)
28.12.2017 11:30 5,0 C 88 % 990,2 hPa 0,0 l/m 20,2 km/h (4 Bft) SW 225 3 min 132 W/m 3,2 C -3,3 C 29,0 km/h (5 Bft)
28.12.2017 11:33 5,0 C 88 % 990,2 hPa 0,0 l/m 18,3 km/h (3 Bft) W-SW 255 3 min 130 W/m 3,2 C -2,5 C 29,0 km/h (5 Bft)
28.12.2017 11:36 5,0 C 88 % 990,2 hPa 0,0 l/m 18,7 km/h (3 Bft) W-SW 237 0 min 97 W/m 3,2 C -2,6 C 25,7 km/h (4 Bft)
28.12.2017 11:39 4,9 C 88 % 990,2 hPa 0,0 l/m 19,5 km/h (3 Bft) W-SW 244 0 min 114 W/m 3,1 C -3,1 C 29,0 km/h (5 Bft)
28.12.2017 11:42 4,9 C 88 % 990,3 hPa 0,0 l/m 20,7 km/h (4 Bft) S-SW 210 0 min 105 W/m 3,1 C -3,6 C 29,0 km/h (5 Bft)
28.12.2017 11:45 4,9 C 88 % 990,3 hPa 0,0 l/m 18,5 km/h (3 Bft) SW 233 0 min 107 W/m 3,1 C -2,7 C 27,4 km/h (5 Bft)
28.12.2017 11:48 4,9 C 88 % 990,3 hPa 0,0 l/m 19,6 km/h (3 Bft) SW 235 0 min 102 W/m 3,1 C -3,1 C 29,0 km/h (5 Bft)
28.12.2017 11:51 4,9 C 88 % 990,3 hPa 0,0 l/m 17,4 km/h (3 Bft) W-SW 248 3 min 128 W/m 3,1 C -2,2 C 27,4 km/h (5 Bft)
28.12.2017 11:54 4,8 C 88 % 990,4 hPa 0,0 l/m 19,4 km/h (3 Bft) SW 234 0 min 76 W/m 3,0 C -3,2 C 29,0 km/h (5 Bft)
28.12.2017 11:57 4,8 C 88 % 990,5 hPa 0,0 l/m 21,2 km/h (4 Bft) SW 218 0 min 44 W/m 3,0 C -3,9 C 32,2 km/h (5 Bft)
28.12.2017 12:00 4,7 C 88 % 990,6 hPa 0,0 l/m 21,2 km/h (4 Bft) SW 228 0 min 30 W/m 2,9 C -4,0 C 30,6 km/h (5 Bft)
28.12.2017 12:03 4,7 C 89 % 990,6 hPa 0,0 l/m 24,8 km/h (4 Bft) S-SW 210 0 min 46 W/m 3,0 C -5,3 C 35,4 km/h (5 Bft)
28.12.2017 12:06 4,6 C 89 % 990,6 hPa 0,0 l/m 20,1 km/h (4 Bft) SW 223 0 min 53 W/m 2,9 C -3,7 C 30,6 km/h (5 Bft)
28.12.2017 12:09 4,4 C 89 % 990,6 hPa 0,0 l/m 18,2 km/h (3 Bft) SW 232 0 min 53 W/m 2,7 C -3,2 C 29,0 km/h (5 Bft)
28.12.2017 12:12 4,3 C 89 % 990,6 hPa 0,0 l/m 16,9 km/h (3 Bft) S-SW 209 0 min 53 W/m 2,7 C -2,7 C 25,7 km/h (4 Bft)
28.12.2017 12:15 4,3 C 90 % 990,5 hPa 0,0 l/m 15,9 km/h (3 Bft) SW 229 0 min 76 W/m 2,8 C -2,2 C 25,7 km/h (4 Bft)
28.12.2017 12:18 4,3 C 90 % 990,6 hPa 0,0 l/m 18,3 km/h (3 Bft) SW 227 0 min 60 W/m 2,8 C -3,4 C 24,1 km/h (4 Bft)
28.12.2017 12:21 4,3 C 90 % 990,6 hPa 0,0 l/m 18,7 km/h (3 Bft) SW 221 0 min 86 W/m 2,8 C -3,5 C 29,0 km/h (5 Bft)
28.12.2017 12:24 4,3 C 91 % 990,7 hPa 0,0 l/m 15,2 km/h (3 Bft) SW 219 3 min 127 W/m 3,0 C -1,9 C 24,1 km/h (4 Bft)
28.12.2017 12:27 4,4 C 91 % 990,6 hPa 0,0 l/m 18,1 km/h (3 Bft) SW 227 0 min 91 W/m 3,1 C -3,1 C 25,7 km/h (4 Bft)
28.12.2017 12:30 4,5 C 91 % 990,6 hPa 0,0 l/m 17,9 km/h (3 Bft) SW 225 0 min 118 W/m 3,2 C -2,9 C 29,0 km/h (5 Bft)
28.12.2017 12:33 4,6 C 91 % 990,6 hPa 0,0 l/m 17,6 km/h (3 Bft) W-SW 250 3 min 192 W/m 3,3 C -2,7 C 24,1 km/h (4 Bft)
28.12.2017 12:36 4,7 C 91 % 990,6 hPa 0,0 l/m 18,0 km/h (3 Bft) W-NW 285 0 min 81 W/m 3,4 C -2,7 C 29,0 km/h (5 Bft)
28.12.2017 12:39 4,7 C 91 % 990,7 hPa 0,0 l/m 14,5 km/h (3 Bft) S-SW 209 0 min 26 W/m 3,4 C -1,0 C 24,1 km/h (4 Bft)
28.12.2017 12:42 4,7 C 90 % 990,7 hPa 0,0 l/m 14,4 km/h (3 Bft) S-SW 205 0 min 53 W/m 3,2 C -1,0 C 24,1 km/h (4 Bft)
28.12.2017 12:45 4,8 C 90 % 990,8 hPa 0,0 l/m 15,8 km/h (3 Bft) W-SW 249 3 min 181 W/m 3,3 C -1,6 C 22,5 km/h (4 Bft)
28.12.2017 12:48 4,8 C 90 % 990,7 hPa 0,0 l/m 19,9 km/h (4 Bft) W 265 0 min 98 W/m 3,3 C -3,4 C 35,4 km/h (5 Bft)
28.12.2017 12:51 4,9 C 90 % 990,8 hPa 0,0 l/m 18,6 km/h (3 Bft) W-SW 252 0 min 98 W/m 3,4 C -2,7 C 30,6 km/h (5 Bft)
28.12.2017 12:54 4,9 C 89 % 990,8 hPa 0,0 l/m 19,2 km/h (3 Bft) SW 226 0 min 104 W/m 3,2 C -3,0 C 38,6 km/h (6 Bft)
28.12.2017 12:57 4,9 C 89 % 990,9 hPa 0,0 l/m 21,2 km/h (4 Bft) W 270 0 min 104 W/m 3,2 C -3,8 C 33,8 km/h (5 Bft)
28.12.2017 13:00 4,9 C 88 % 990,8 hPa 0,0 l/m 15,4 km/h (3 Bft) S-SW 208 0 min 28 W/m 3,1 C -1,2 C 25,7 km/h (4 Bft)
28.12.2017 13:03 4,8 C 88 % 990,9 hPa 0,0 l/m 20,0 km/h (4 Bft) S-SW 208 0 min 77 W/m 3,0 C -3,4 C 29,0 km/h (5 Bft)
28.12.2017 13:06 4,8 C 88 % 990,9 hPa 0,0 l/m 18,2 km/h (3 Bft) SW 225 0 min 91 W/m 3,0 C -2,7 C 32,2 km/h (5 Bft)
28.12.2017 13:09 4,8 C 89 % 990,8 hPa 0,0 l/m 19,4 km/h (3 Bft) W-SW 239 3 min 156 W/m 3,1 C -3,2 C 32,2 km/h (5 Bft)
28.12.2017 13:12 4,9 C 89 % 990,9 hPa 0,0 l/m 17,2 km/h (3 Bft) SW 225 3 min 171 W/m 3,2 C -2,1 C 29,0 km/h (5 Bft)
28.12.2017 13:15 4,8 C 89 % 990,8 hPa 0,0 l/m 21,0 km/h (4 Bft) SW 232 3 min 137 W/m 3,1 C -3,8 C 29,0 km/h (5 Bft)
28.12.2017 13:18 4,8 C 89 % 990,9 hPa 0,0 l/m 19,2 km/h (3 Bft) SW 224 0 min 69 W/m 3,1 C -3,1 C 33,8 km/h (5 Bft)
28.12.2017 13:21 4,7 C 89 % 990,9 hPa 0,0 l/m 21,0 km/h (4 Bft) SW 231 0 min 47 W/m 3,0 C -4,0 C 33,8 km/h (5 Bft)
28.12.2017 13:24 4,7 C 89 % 990,9 hPa 0,0 l/m 19,9 km/h (4 Bft) W-SW 251 0 min 79 W/m 3,0 C -3,5 C 29,0 km/h (5 Bft)
28.12.2017 13:27 4,7 C 89 % 990,9 hPa 0,0 l/m 22,7 km/h (4 Bft) SW 232 0 min 51 W/m 3,0 C -4,6 C 37,0 km/h (5 Bft)
28.12.2017 13:30 4,7 C 89 % 990,9 hPa 0,0 l/m 20,2 km/h (4 Bft) SW 214 0 min 111 W/m 3,0 C -3,6 C 32,2 km/h (5 Bft)
28.12.2017 13:33 4,7 C 89 % 990,9 hPa 0,0 l/m 19,9 km/h (4 Bft) SW 229 0 min 77 W/m 3,0 C -3,5 C 29,0 km/h (5 Bft)
28.12.2017 13:36 4,7 C 89 % 991,0 hPa 0,0 l/m 18,1 km/h (3 Bft) SW 221 0 min 74 W/m 3,0 C -2,8 C 27,4 km/h (5 Bft)
28.12.2017 13:39 4,7 C 89 % 990,9 hPa 0,0 l/m 18,0 km/h (3 Bft) S-SW 209 0 min 81 W/m 3,0 C -2,7 C 27,4 km/h (5 Bft)
28.12.2017 13:42 4,7 C 89 % 990,9 hPa 0,0 l/m 24,8 km/h (4 Bft) W-SW 241 0 min 70 W/m 3,0 C -5,3 C 32,2 km/h (5 Bft)
28.12.2017 13:45 4,7 C 89 % 991,0 hPa 0,0 l/m 24,3 km/h (4 Bft) SW 229 0 min 60 W/m 3,0 C -5,1 C 37,0 km/h (5 Bft)
28.12.2017 13:48 4,6 C 89 % 991,0 hPa 0,0 l/m 21,6 km/h (4 Bft) W-SW 240 0 min 74 W/m 2,9 C -4,3 C 32,2 km/h (5 Bft)
28.12.2017 13:51 4,6 C 89 % 991,0 hPa 0,0 l/m 20,7 km/h (4 Bft) SW 216 0 min 97 W/m 2,9 C -4,0 C 29,0 km/h (5 Bft)
28.12.2017 13:54 4,6 C 89 % 991,1 hPa 0,0 l/m 23,0 km/h (4 Bft) SW 219 3 min 148 W/m 2,9 C -4,8 C 35,4 km/h (5 Bft)
28.12.2017 13:57 4,5 C 89 % 991,1 hPa 0,0 l/m 22,7 km/h (4 Bft) SW 230 0 min 49 W/m 2,8 C -4,8 C 38,6 km/h (6 Bft)
28.12.2017 14:00 4,5 C 89 % 991,1 hPa 0,0 l/m 22,6 km/h (4 Bft) SW 217 0 min 60 W/m 2,8 C -4,8 C 38,6 km/h (6 Bft)
28.12.2017 14:03 4,4 C 89 % 991,1 hPa 0,0 l/m 23,7 km/h (4 Bft) SW 215 0 min 46 W/m 2,7 C -5,3 C 33,8 km/h (5 Bft)
28.12.2017 14:06 4,4 C 89 % 991,1 hPa 0,0 l/m 21,4 km/h (4 Bft) W-SW 246 0 min 39 W/m 2,7 C -4,5 C 32,2 km/h (5 Bft)
28.12.2017 14:09 4,4 C 89 % 991,2 hPa 0,0 l/m 21,4 km/h (4 Bft) W-SW 250 0 min 35 W/m 2,7 C -4,5 C 33,8 km/h (5 Bft)
28.12.2017 14:12 4,4 C 89 % 991,2 hPa 0,0 l/m 21,6 km/h (4 Bft) SW 234 0 min 33 W/m 2,7 C -4,6 C 30,6 km/h (5 Bft)
28.12.2017 14:15 4,4 C 89 % 991,2 hPa 0,0 l/m 21,9 km/h (4 Bft) SW 229 0 min 32 W/m 2,7 C -4,7 C 37,0 km/h (5 Bft)
28.12.2017 14:18 4,4 C 89 % 991,2 hPa 0,0 l/m 19,4 km/h (3 Bft) SW 227 0 min 30 W/m 2,7 C -3,7 C 33,8 km/h (5 Bft)
28.12.2017 14:21 4,4 C 89 % 991,3 hPa 0,0 l/m 21,7 km/h (4 Bft) W-SW 257 0 min 37 W/m 2,7 C -4,6 C 32,2 km/h (5 Bft)
28.12.2017 14:24 4,4 C 89 % 991,2 hPa 0,0 l/m 20,5 km/h (4 Bft) W-SW 252 0 min 26 W/m 2,7 C -4,1 C 30,6 km/h (5 Bft)
28.12.2017 14:27 4,4 C 89 % 991,2 hPa 0,0 l/m 19,4 km/h (3 Bft) SW 232 0 min 18 W/m 2,7 C -3,7 C 30,6 km/h (5 Bft)
28.12.2017 14:30 4,4 C 89 % 991,3 hPa 0,0 l/m 20,8 km/h (4 Bft) SW 214 0 min 30 W/m 2,7 C -4,3 C 30,6 km/h (5 Bft)
28.12.2017 14:33 4,4 C 89 % 991,3 hPa 0,0 l/m 20,6 km/h (4 Bft) W-SW 241 0 min 16 W/m 2,7 C -4,2 C 32,2 km/h (5 Bft)
28.12.2017 14:36 4,3 C 90 % 991,4 hPa 0,0 l/m 22,6 km/h (4 Bft) SW 222 0 min 18 W/m 2,8 C -5,1 C 33,8 km/h (5 Bft)
28.12.2017 14:39 4,3 C 90 % 991,3 hPa 0,0 l/m 22,2 km/h (4 Bft) W-SW 245 0 min 25 W/m 2,8 C -4,9 C 33,8 km/h (5 Bft)
28.12.2017 14:42 4,3 C 90 % 991,3 hPa 0,0 l/m 21,3 km/h (4 Bft) W-SW 244 0 min 33 W/m 2,8 C -4,6 C 32,2 km/h (5 Bft)
28.12.2017 14:45 4,3 C 90 % 991,3 hPa 0,0 l/m 21,3 km/h (4 Bft) SW 234 0 min 21 W/m 2,8 C -4,6 C 30,6 km/h (5 Bft)
28.12.2017 14:48 4,3 C 90 % 991,2 hPa 0,0 l/m 22,4 km/h (4 Bft) W-SW 238 0 min 26 W/m 2,8 C -5,0 C 32,2 km/h (5 Bft)
28.12.2017 14:51 4,3 C 90 % 991,2 hPa 0,0 l/m 22,9 km/h (4 Bft) SW 229 0 min 18 W/m 2,8 C -5,2 C 30,6 km/h (5 Bft)
28.12.2017 14:54 4,2 C 90 % 991,2 hPa 0,0 l/m 26,1 km/h (4 Bft) W-SW 248 0 min 16 W/m 2,7 C -6,4 C 35,4 km/h (5 Bft)
28.12.2017 14:57 4,2 C 91 % 991,3 hPa 0,0 l/m 21,5 km/h (4 Bft) SW 220 0 min 19 W/m 2,9 C -4,8 C 32,2 km/h (5 Bft)
28.12.2017 15:00 4,2 C 91 % 991,4 hPa 0,0 l/m 22,1 km/h (4 Bft) SW 223 0 min 12 W/m 2,9 C -5,0 C 32,2 km/h (5 Bft)
28.12.2017 15:03 4,2 C 91 % 991,4 hPa 0,0 l/m 17,6 km/h (3 Bft) S-SW 208 0 min 11 W/m 2,9 C -3,2 C 29,0 km/h (5 Bft)
28.12.2017 15:06 4,2 C 91 % 991,4 hPa 0,0 l/m 21,8 km/h (4 Bft) SW 229 0 min 7 W/m 2,9 C -4,9 C 32,2 km/h (5 Bft)
28.12.2017 15:09 4,2 C 91 % 991,4 hPa 0,0 l/m 19,9 km/h (4 Bft) SW 225 0 min 9 W/m 2,9 C -4,2 C 27,4 km/h (5 Bft)
28.12.2017 15:12 4,2 C 91 % 991,5 hPa 0,0 l/m 20,3 km/h (4 Bft) S-SW 201 0 min 16 W/m 2,9 C -4,3 C 29,0 km/h (5 Bft)
28.12.2017 15:15 4,1 C 91 % 991,5 hPa 0,0 l/m 20,6 km/h (4 Bft) W-SW 243 0 min 9 W/m 2,8 C -4,6 C 37,0 km/h (5 Bft)
28.12.2017 15:18 4,1 C 91 % 991,6 hPa 0,0 l/m 21,8 km/h (4 Bft) SW 223 0 min 11 W/m 2,8 C -5,0 C 30,6 km/h (5 Bft)
28.12.2017 15:21 4,1 C 92 % 991,5 hPa 0,0 l/m 21,2 km/h (4 Bft) S-SW 207 0 min 14 W/m 2,9 C -4,8 C 33,8 km/h (5 Bft)
28.12.2017 15:24 4,0 C 92 % 991,6 hPa 0,0 l/m 23,9 km/h (4 Bft) SW 216 0 min 9 W/m 2,8 C -5,9 C 33,8 km/h (5 Bft)
28.12.2017 15:27 4,0 C 92 % 991,6 hPa 0,0 l/m 19,1 km/h (3 Bft) SW 228 0 min 7 W/m 2,8 C -4,1 C 29,0 km/h (5 Bft)
28.12.2017 15:30 3,9 C 92 % 991,6 hPa 0,0 l/m 22,9 km/h (4 Bft) SW 217 0 min 0 W/m 2,7 C -5,7 C 33,8 km/h (5 Bft)
28.12.2017 15:33 3,9 C 92 % 991,7 hPa 0,0 l/m 24,3 km/h (4 Bft) W-SW 242 0 min 5 W/m 2,7 C -6,2 C 37,0 km/h (5 Bft)
28.12.2017 15:36 3,9 C 92 % 991,7 hPa 0,0 l/m 21,6 km/h (4 Bft) S-SW 208 0 min 0 W/m 2,7 C -5,2 C 32,2 km/h (5 Bft)
28.12.2017 15:39 3,9 C 92 % 991,7 hPa 0,0 l/m 23,3 km/h (4 Bft) SW 217 0 min 0 W/m 2,7 C -5,9 C 38,6 km/h (6 Bft)
28.12.2017 15:42 3,9 C 92 % 991,7 hPa 0,2 l/m 22,0 km/h (4 Bft) W-SW 241 0 min 0 W/m 2,7 C -5,4 C 33,8 km/h (5 Bft)
28.12.2017 15:45 3,8 C 92 % 991,7 hPa 0,0 l/m 21,7 km/h (4 Bft) W 265 0 min 0 W/m 2,6 C -5,4 C 32,2 km/h (5 Bft)
28.12.2017 15:48 3,9 C 93 % 991,8 hPa 0,0 l/m 25,6 km/h (4 Bft) SW 221 0 min 0 W/m 2,9 C -6,6 C 46,7 km/h (6 Bft)
28.12.2017 15:51 3,8 C 93 % 991,9 hPa 0,0 l/m 22,1 km/h (4 Bft) S-SW 196 0 min 0 W/m 2,8 C -5,5 C 32,2 km/h (5 Bft)
28.12.2017 15:54 3,8 C 93 % 991,9 hPa 0,0 l/m 18,6 km/h (3 Bft) SW 232 0 min 0 W/m 2,8 C -4,1 C 32,2 km/h (5 Bft)
28.12.2017 15:57 3,8 C 93 % 991,9 hPa 0,0 l/m 20,4 km/h (4 Bft) SW 234 0 min 0 W/m 2,8 C -4,9 C 30,6 km/h (5 Bft)
28.12.2017 16:00 3,7 C 93 % 991,9 hPa 0,0 l/m 20,2 km/h (4 Bft) SW 225 0 min 0 W/m 2,7 C -4,9 C 30,6 km/h (5 Bft)
28.12.2017 16:03 3,7 C 93 % 992,0 hPa 0,0 l/m 20,9 km/h (4 Bft) SW 219 0 min 0 W/m 2,7 C -5,2 C 32,2 km/h (5 Bft)
28.12.2017 16:06 3,7 C 93 % 992,1 hPa 0,0 l/m 17,7 km/h (3 Bft) SW 217 0 min 0 W/m 2,7 C -3,8 C 32,2 km/h (5 Bft)
28.12.2017 16:09 3,7 C 93 % 992,0 hPa 0,0 l/m 19,5 km/h (3 Bft) SW 215 0 min 0 W/m 2,7 C -4,6 C 27,4 km/h (5 Bft)
28.12.2017 16:12 3,7 C 93 % 992,0 hPa 0,0 l/m 15,3 km/h (3 Bft) S-SW 198 0 min 0 W/m 2,7 C -2,7 C 22,5 km/h (4 Bft)
28.12.2017 16:15 3,7 C 93 % 992,0 hPa 0,0 l/m 21,9 km/h (4 Bft) S-SW 207 0 min 0 W/m 2,7 C -5,6 C 32,2 km/h (5 Bft)
28.12.2017 16:18 3,8 C 93 % 992,1 hPa 0,0 l/m 24,7 km/h (4 Bft) SW 226 0 min 0 W/m 2,8 C -6,5 C 38,6 km/h (6 Bft)
28.12.2017 16:21 3,7 C 94 % 992,1 hPa 0,0 l/m 23,8 km/h (4 Bft) SW 225 0 min 0 W/m 2,8 C -6,3 C 41,8 km/h (6 Bft)
28.12.2017 16:24 3,7 C 94 % 992,1 hPa 0,0 l/m 26,5 km/h (4 Bft) W-SW 240 0 min 0 W/m 2,8 C -7,2 C 38,6 km/h (6 Bft)
28.12.2017 16:27 3,7 C 94 % 992,2 hPa 0,0 l/m 24,9 km/h (4 Bft) SW 215 0 min 0 W/m 2,8 C -6,7 C 35,4 km/h (5 Bft)
28.12.2017 16:30 3,6 C 94 % 992,1 hPa 0,0 l/m 22,3 km/h (4 Bft) SW 235 0 min 0 W/m 2,7 C -5,9 C 35,4 km/h (5 Bft)
28.12.2017 16:33 3,6 C 94 % 992,1 hPa 0,0 l/m 21,4 km/h (4 Bft) SW 223 0 min 0 W/m 2,7 C -5,5 C 29,0 km/h (5 Bft)
28.12.2017 16:36 3,6 C 94 % 992,2 hPa 0,0 l/m 21,3 km/h (4 Bft) SW 223 0 min 0 W/m 2,7 C -5,5 C 35,4 km/h (5 Bft)
28.12.2017 16:39 3,6 C 94 % 992,3 hPa 0,0 l/m 22,0 km/h (4 Bft) SW 232 0 min 0 W/m 2,7 C -5,8 C 29,0 km/h (5 Bft)
28.12.2017 16:42 3,6 C 94 % 992,3 hPa 0,0 l/m 22,0 km/h (4 Bft) SW 220 0 min 0 W/m 2,7 C -5,8 C 29,0 km/h (5 Bft)
28.12.2017 16:45 3,6 C 94 % 992,4 hPa 0,0 l/m 20,8 km/h (4 Bft) SW 234 0 min 0 W/m 2,7 C -5,3 C 30,6 km/h (5 Bft)
28.12.2017 16:48 3,7 C 94 % 992,4 hPa 0,0 l/m 24,3 km/h (4 Bft) SW 214 0 min 0 W/m 2,8 C -6,5 C 37,0 km/h (5 Bft)
28.12.2017 16:51 3,7 C 94 % 992,4 hPa 0,2 l/m 25,2 km/h (4 Bft) SW 227 0 min 0 W/m 2,8 C -6,8 C 41,8 km/h (6 Bft)
28.12.2017 16:54 3,7 C 94 % 992,4 hPa 0,0 l/m 23,6 km/h (4 Bft) SW 219 0 min 0 W/m 2,8 C -6,2 C 38,6 km/h (6 Bft)
28.12.2017 16:57 3,6 C 94 % 992,5 hPa 0,0 l/m 21,8 km/h (4 Bft) S-SW 205 0 min 0 W/m 2,7 C -5,7 C 33,8 km/h (5 Bft)
28.12.2017 17:00 3,6 C 94 % 992,5 hPa 0,0 l/m 23,4 km/h (4 Bft) SW 230 0 min 0 W/m 2,7 C -6,3 C 33,8 km/h (5 Bft)
28.12.2017 17:03 3,6 C 94 % 992,6 hPa 0,0 l/m 22,9 km/h (4 Bft) W-SW 242 0 min 0 W/m 2,7 C -6,1 C 32,2 km/h (5 Bft)
28.12.2017 17:06 3,6 C 94 % 992,7 hPa 0,0 l/m 23,6 km/h (4 Bft) SW 219 0 min 0 W/m 2,7 C -6,4 C 37,0 km/h (5 Bft)
28.12.2017 17:09 3,6 C 94 % 992,7 hPa 0,0 l/m 21,7 km/h (4 Bft) SW 227 0 min 0 W/m 2,7 C -5,7 C 35,4 km/h (5 Bft)
28.12.2017 17:12 3,5 C 94 % 992,7 hPa 0,2 l/m 20,4 km/h (4 Bft) SW 235 0 min 0 W/m 2,6 C -5,3 C 32,2 km/h (5 Bft)
28.12.2017 17:15 3,5 C 94 % 992,8 hPa 0,0 l/m 19,9 km/h (4 Bft) W-SW 238 0 min 0 W/m 2,6 C -5,1 C 29,0 km/h (5 Bft)
28.12.2017 17:18 3,6 C 94 % 992,8 hPa 0,0 l/m 20,4 km/h (4 Bft) SW 230 0 min 0 W/m 2,7 C -5,1 C 27,4 km/h (5 Bft)
28.12.2017 17:21 3,6 C 94 % 992,8 hPa 0,0 l/m 19,7 km/h (3 Bft) S-SW 208 0 min 0 W/m 2,7 C -4,9 C 29,0 km/h (5 Bft)
28.12.2017 17:24 3,6 C 94 % 992,8 hPa 0,0 l/m 20,6 km/h (4 Bft) W 259 0 min 0 W/m 2,7 C -5,2 C 32,2 km/h (5 Bft)
28.12.2017 17:27 3,6 C 95 % 992,9 hPa 0,0 l/m 22,5 km/h (4 Bft) S-SW 210 0 min 0 W/m 2,9 C -6,0 C 33,8 km/h (5 Bft)
28.12.2017 17:30 3,6 C 95 % 992,9 hPa 0,0 l/m 20,3 km/h (4 Bft) SW 236 0 min 0 W/m 2,9 C -5,1 C 33,8 km/h (5 Bft)
28.12.2017 17:33 3,6 C 95 % 992,9 hPa 0,0 l/m 19,9 km/h (4 Bft) SW 216 0 min 0 W/m 2,9 C -4,9 C 30,6 km/h (5 Bft)
28.12.2017 17:36 3,5 C 95 % 992,9 hPa 0,0 l/m 17,9 km/h (3 Bft) W 271 0 min 0 W/m 2,8 C -4,2 C 30,6 km/h (5 Bft)
28.12.2017 17:39 3,5 C 95 % 993,0 hPa 0,0 l/m 18,8 km/h (3 Bft) S-SW 198 0 min 0 W/m 2,8 C -4,6 C 27,4 km/h (5 Bft)
28.12.2017 17:42 3,5 C 95 % 993,0 hPa 0,0 l/m 21,5 km/h (4 Bft) W-SW 238 0 min 0 W/m 2,8 C -5,7 C 29,0 km/h (5 Bft)
28.12.2017 17:45 3,5 C 95 % 993,0 hPa 0,0 l/m 20,8 km/h (4 Bft) W-SW 237 0 min 0 W/m 2,8 C -5,4 C 32,2 km/h (5 Bft)
28.12.2017 17:48 3,5 C 95 % 993,0 hPa 0,0 l/m 18,7 km/h (3 Bft) W-SW 240 0 min 0 W/m 2,8 C -4,6 C 27,4 km/h (5 Bft)
28.12.2017 17:51 3,6 C 95 % 993,0 hPa 0,0 l/m 20,9 km/h (4 Bft) SW 234 0 min 0 W/m 2,9 C -5,3 C 29,0 km/h (5 Bft)
28.12.2017 17:54 3,6 C 95 % 993,1 hPa 0,0 l/m 20,2 km/h (4 Bft) SW 215 0 min 0 W/m 2,9 C -5,1 C 29,0 km/h (5 Bft)
28.12.2017 17:57 3,6 C 95 % 993,0 hPa 0,0 l/m 23,0 km/h (4 Bft) SW 228 0 min 0 W/m 2,9 C -6,1 C 32,2 km/h (5 Bft)
28.12.2017 18:00 3,6 C 95 % 993,1 hPa 0,0 l/m 21,0 km/h (4 Bft) SW 223 0 min 0 W/m 2,9 C -5,4 C 32,2 km/h (5 Bft)
28.12.2017 18:03 3,6 C 95 % 993,1 hPa 0,0 l/m 22,0 km/h (4 Bft) SW 227 0 min 0 W/m 2,9 C -5,8 C 30,6 km/h (5 Bft)
28.12.2017 18:06 3,7 C 95 % 993,2 hPa 0,0 l/m 22,9 km/h (4 Bft) W-NW 288 0 min 0 W/m 3,0 C -6,0 C 32,2 km/h (5 Bft)
28.12.2017 18:09 3,7 C 95 % 993,1 hPa 0,0 l/m 22,5 km/h (4 Bft) S-SW 210 0 min 0 W/m 3,0 C -5,8 C 32,2 km/h (5 Bft)
28.12.2017 18:12 3,7 C 95 % 993,2 hPa 0,0 l/m 21,2 km/h (4 Bft) SW 215 0 min 0 W/m 3,0 C -5,3 C 29,0 km/h (5 Bft)
28.12.2017 18:15 3,7 C 95 % 993,2 hPa 0,0 l/m 23,8 km/h (4 Bft) SW 229 0 min 0 W/m 3,0 C -6,3 C 33,8 km/h (5 Bft)
28.12.2017 18:18 3,7 C 95 % 993,2 hPa 0,0 l/m 23,1 km/h (4 Bft) SW 223 0 min 0 W/m 3,0 C -6,0 C 30,6 km/h (5 Bft)
28.12.2017 18:21 3,7 C 95 % 993,2 hPa 0,0 l/m 21,1 km/h (4 Bft) SW 225 0 min 0 W/m 3,0 C -5,3 C 32,2 km/h (5 Bft)
28.12.2017 18:24 3,7 C 95 % 993,3 hPa 0,0 l/m 22,9 km/h (4 Bft) SW 227 0 min 0 W/m 3,0 C -6,0 C 33,8 km/h (5 Bft)
28.12.2017 18:27 3,7 C 95 % 993,3 hPa 0,0 l/m 22,6 km/h (4 Bft) SW 224 0 min 0 W/m 3,0 C -5,9 C 30,6 km/h (5 Bft)
28.12.2017 18:30 3,7 C 95 % 993,3 hPa 0,0 l/m 23,2 km/h (4 Bft) W-SW 241 0 min 0 W/m 3,0 C -6,1 C 35,4 km/h (5 Bft)
28.12.2017 18:33 3,7 C 95 % 993,4 hPa 0,0 l/m 23,2 km/h (4 Bft) W-SW 238 0 min 0 W/m 3,0 C -6,1 C 33,8 km/h (5 Bft)
28.12.2017 18:36 3,7 C 95 % 993,3 hPa 0,0 l/m 22,6 km/h (4 Bft) W-SW 239 0 min 0 W/m 3,0 C -5,9 C 33,8 km/h (5 Bft)
28.12.2017 18:39 3,6 C 95 % 993,4 hPa 0,0 l/m 22,5 km/h (4 Bft) S-SW 211 0 min 0 W/m 2,9 C -6,0 C 38,6 km/h (6 Bft)
28.12.2017 18:42 3,6 C 95 % 993,4 hPa 0,0 l/m 20,9 km/h (4 Bft) SW 224 0 min 0 W/m 2,9 C -5,3 C 30,6 km/h (5 Bft)
28.12.2017 18:45 3,5 C 95 % 993,4 hPa 0,0 l/m 19,2 km/h (3 Bft) W-SW 247 0 min 0 W/m 2,8 C -4,8 C 27,4 km/h (5 Bft)
28.12.2017 18:48 3,5 C 95 % 993,5 hPa 0,0 l/m 19,8 km/h (3 Bft) W-SW 239 0 min 0 W/m 2,8 C -5,0 C 33,8 km/h (5 Bft)
28.12.2017 18:51 3,5 C 95 % 993,5 hPa 0,0 l/m 22,6 km/h (4 Bft) SW 218 0 min 0 W/m 2,8 C -6,1 C 35,4 km/h (5 Bft)
28.12.2017 18:54 3,4 C 94 % 993,6 hPa 0,0 l/m 19,7 km/h (3 Bft) SW 235 0 min 0 W/m 2,5 C -5,1 C 27,4 km/h (5 Bft)
28.12.2017 18:57 3,4 C 94 % 993,7 hPa 0,0 l/m 20,5 km/h (4 Bft) S-SW 209 0 min 0 W/m 2,5 C -5,4 C 32,2 km/h (5 Bft)
28.12.2017 19:00 3,5 C 95 % 993,7 hPa 0,0 l/m 19,8 km/h (3 Bft) SW 232 0 min 0 W/m 2,8 C -5,0 C 35,4 km/h (5 Bft)
28.12.2017 19:03 3,6 C 95 % 993,8 hPa 0,0 l/m 22,1 km/h (4 Bft) SW 234 0 min 0 W/m 2,9 C -5,8 C 35,4 km/h (5 Bft)
28.12.2017 19:06 3,6 C 95 % 994,0 hPa 0,2 l/m 21,4 km/h (4 Bft) SW 217 0 min 0 W/m 2,9 C -5,5 C 33,8 km/h (5 Bft)
28.12.2017 19:09 3,7 C 94 % 993,9 hPa 0,0 l/m 22,6 km/h (4 Bft) W-SW 254 0 min 0 W/m 2,8 C -5,9 C 32,2 km/h (5 Bft)
28.12.2017 19:12 3,7 C 94 % 994,0 hPa 0,0 l/m 24,0 km/h (4 Bft) SW 219 0 min 0 W/m 2,8 C -6,4 C 38,6 km/h (6 Bft)
28.12.2017 19:15 3,7 C 94 % 994,0 hPa 0,0 l/m 20,8 km/h (4 Bft) SW 215 0 min 0 W/m 2,8 C -5,2 C 30,6 km/h (5 Bft)
28.12.2017 19:18 3,7 C 94 % 994,0 hPa 0,0 l/m 20,8 km/h (4 Bft) SW 230 0 min 0 W/m 2,8 C -5,2 C 35,4 km/h (5 Bft)
28.12.2017 19:21 3,7 C 94 % 994,1 hPa 0,2 l/m 21,5 km/h (4 Bft) S-SW 198 0 min 0 W/m 2,8 C -5,5 C 35,4 km/h (5 Bft)
28.12.2017 19:24 3,7 C 94 % 994,0 hPa 0,0 l/m 21,1 km/h (4 Bft) SW 227 0 min 0 W/m 2,8 C -5,3 C 30,6 km/h (5 Bft)
28.12.2017 19:27 3,7 C 94 % 994,0 hPa 0,0 l/m 19,0 km/h (3 Bft) SW 223 0 min 0 W/m 2,8 C -4,4 C 29,0 km/h (5 Bft)
28.12.2017 19:30 3,7 C 95 % 994,0 hPa 0,0 l/m 21,3 km/h (4 Bft) W-SW 240 0 min 0 W/m 3,0 C -5,4 C 30,6 km/h (5 Bft)
28.12.2017 19:33 3,7 C 95 % 994,1 hPa 0,0 l/m 20,0 km/h (4 Bft) S-SW 213 0 min 0 W/m 3,0 C -4,9 C 32,2 km/h (5 Bft)
28.12.2017 19:36 3,7 C 95 % 994,0 hPa 0,0 l/m 18,8 km/h (3 Bft) SW 226 0 min 0 W/m 3,0 C -4,3 C 27,4 km/h (5 Bft)
28.12.2017 19:39 3,7 C 95 % 994,1 hPa 0,0 l/m 20,0 km/h (4 Bft) W-SW 237 0 min 0 W/m 3,0 C -4,9 C 33,8 km/h (5 Bft)
28.12.2017 19:42 3,7 C 95 % 994,1 hPa 0,0 l/m 21,6 km/h (4 Bft) W-SW 237 0 min 0 W/m 3,0 C -5,5 C 32,2 km/h (5 Bft)
28.12.2017 19:45 3,7 C 95 % 994,2 hPa 0,0 l/m 20,1 km/h (4 Bft) W-SW 242 0 min 0 W/m 3,0 C -4,9 C 27,4 km/h (5 Bft)
28.12.2017 19:48 3,7 C 95 % 994,2 hPa 0,0 l/m 22,0 km/h (4 Bft) S-SW 207 0 min 0 W/m 3,0 C -5,6 C 32,2 km/h (5 Bft)
28.12.2017 19:51 3,7 C 95 % 994,2 hPa 0,0 l/m 24,3 km/h (4 Bft) S-SW 213 0 min 0 W/m 3,0 C -6,5 C 37,0 km/h (5 Bft)
28.12.2017 19:54 3,7 C 95 % 994,3 hPa 0,0 l/m 22,8 km/h (4 Bft) W-SW 245 0 min 0 W/m 3,0 C -5,9 C 32,2 km/h (5 Bft)
28.12.2017 19:57 3,7 C 95 % 994,3 hPa 0,0 l/m 18,7 km/h (3 Bft) SW 231 0 min 0 W/m 3,0 C -4,3 C 25,7 km/h (4 Bft)
28.12.2017 20:00 3,8 C 95 % 994,3 hPa 0,0 l/m 22,4 km/h (4 Bft) W-SW 239 0 min 0 W/m 3,1 C -5,7 C 33,8 km/h (5 Bft)
28.12.2017 20:03 3,8 C 95 % 994,3 hPa 0,0 l/m 19,9 km/h (4 Bft) S-SW 210 0 min 0 W/m 3,1 C -4,7 C 27,4 km/h (5 Bft)
28.12.2017 20:06 3,8 C 95 % 994,3 hPa 0,0 l/m 20,4 km/h (4 Bft) SW 235 0 min 0 W/m 3,1 C -4,9 C 32,2 km/h (5 Bft)
28.12.2017 20:09 3,8 C 95 % 994,3 hPa 0,0 l/m 22,3 km/h (4 Bft) SW 221 0 min 0 W/m 3,1 C -5,6 C 33,8 km/h (5 Bft)
28.12.2017 20:12 3,8 C 95 % 994,3 hPa 0,0 l/m 23,8 km/h (4 Bft) W-SW 250 0 min 0 W/m 3,1 C -6,2 C 37,0 km/h (5 Bft)
28.12.2017 20:15 3,8 C 95 % 994,4 hPa 0,0 l/m 25,3 km/h (4 Bft) SW 219 0 min 0 W/m 3,1 C -6,7 C 38,6 km/h (6 Bft)
28.12.2017 20:18 3,8 C 95 % 994,4 hPa 0,0 l/m 23,7 km/h (4 Bft) S-SW 202 0 min 0 W/m 3,1 C -6,1 C 32,2 km/h (5 Bft)
28.12.2017 20:21 3,8 C 94 % 994,6 hPa 0,0 l/m 25,4 km/h (4 Bft) S-SW 207 0 min 0 W/m 2,9 C -6,7 C 37,0 km/h (5 Bft)
28.12.2017 20:24 3,8 C 94 % 994,6 hPa 0,0 l/m 25,5 km/h (4 Bft) SW 220 0 min 0 W/m 2,9 C -6,7 C 40,2 km/h (6 Bft)
28.12.2017 20:27 3,8 C 94 % 994,6 hPa 0,0 l/m 24,5 km/h (4 Bft) S-SW 193 0 min 0 W/m 2,9 C -6,4 C 35,4 km/h (5 Bft)
28.12.2017 20:30 3,8 C 94 % 994,7 hPa 0,0 l/m 25,1 km/h (4 Bft) SW 230 0 min 0 W/m 2,9 C -6,6 C 35,4 km/h (5 Bft)
28.12.2017 20:33 3,8 C 94 % 994,7 hPa 0,0 l/m 27,0 km/h (5 Bft) SW 223 0 min 0 W/m 2,9 C -7,2 C 41,8 km/h (6 Bft)
28.12.2017 20:36 3,8 C 94 % 994,8 hPa 0,0 l/m 21,8 km/h (4 Bft) S-SW 196 0 min 0 W/m 2,9 C -5,4 C 33,8 km/h (5 Bft)
28.12.2017 20:39 3,8 C 94 % 994,8 hPa 0,0 l/m 27,7 km/h (5 Bft) SW 223 0 min 0 W/m 2,9 C -7,4 C 38,6 km/h (6 Bft)
28.12.2017 20:42 3,8 C 94 % 994,8 hPa 0,0 l/m 25,4 km/h (4 Bft) W-SW 241 0 min 0 W/m 2,9 C -6,7 C 43,5 km/h (6 Bft)
28.12.2017 20:45 3,8 C 94 % 994,8 hPa 0,0 l/m 22,4 km/h (4 Bft) SW 215 0 min 0 W/m 2,9 C -5,7 C 35,4 km/h (5 Bft)
28.12.2017 20:48 3,8 C 94 % 994,8 hPa 0,0 l/m 21,5 km/h (4 Bft) W-SW 252 0 min 0 W/m 2,9 C -5,3 C 32,2 km/h (5 Bft)
28.12.2017 20:51 3,8 C 94 % 994,8 hPa 0,0 l/m 24,0 km/h (4 Bft) SW 225 0 min 0 W/m 2,9 C -6,2 C 35,4 km/h (5 Bft)
28.12.2017 20:54 3,8 C 94 % 994,9 hPa 0,0 l/m 24,1 km/h (4 Bft) SW 217 0 min 0 W/m 2,9 C -6,3 C 33,8 km/h (5 Bft)
28.12.2017 20:57 3,8 C 94 % 994,9 hPa 0,0 l/m 19,9 km/h (4 Bft) S-SW 198 0 min 0 W/m 2,9 C -4,7 C 29,0 km/h (5 Bft)
28.12.2017 21:00 3,8 C 94 % 994,9 hPa 0,0 l/m 23,6 km/h (4 Bft) W-SW 238 0 min 0 W/m 2,9 C -6,1 C 40,2 km/h (6 Bft)
28.12.2017 21:03 3,7 C 93 % 994,9 hPa 0,0 l/m 25,8 km/h (4 Bft) S-SW 211 0 min 0 W/m 2,7 C -7,0 C 40,2 km/h (6 Bft)
28.12.2017 21:06 3,7 C 93 % 995,0 hPa 0,0 l/m 25,4 km/h (4 Bft) S-SW 201 0 min 0 W/m 2,7 C -6,8 C 33,8 km/h (5 Bft)
28.12.2017 21:09 3,7 C 93 % 995,0 hPa 0,0 l/m 27,3 km/h (5 Bft) W-SW 240 0 min 0 W/m 2,7 C -7,4 C 41,8 km/h (6 Bft)
28.12.2017 21:12 3,7 C 93 % 995,0 hPa 0,0 l/m 27,8 km/h (5 Bft) S-SW 207 0 min 0 W/m 2,7 C -7,6 C 41,8 km/h (6 Bft)
28.12.2017 21:15 3,7 C 93 % 995,1 hPa 0,0 l/m 25,6 km/h (4 Bft) SW 231 0 min 0 W/m 2,7 C -6,9 C 40,2 km/h (6 Bft)
28.12.2017 21:18 3,7 C 93 % 995,0 hPa 0,0 l/m 24,1 km/h (4 Bft) W-SW 240 0 min 0 W/m 2,7 C -6,4 C 37,0 km/h (5 Bft)
28.12.2017 21:21 3,7 C 93 % 995,1 hPa 0,0 l/m 24,8 km/h (4 Bft) SW 227 0 min 0 W/m 2,7 C -6,6 C 37,0 km/h (5 Bft)
28.12.2017 21:24 3,8 C 93 % 995,1 hPa 0,0 l/m 23,3 km/h (4 Bft) S-SW 205 0 min 0 W/m 2,8 C -6,0 C 40,2 km/h (6 Bft)
28.12.2017 21:27 3,8 C 93 % 995,2 hPa 0,0 l/m 25,9 km/h (4 Bft) W-SW 247 0 min 0 W/m 2,8 C -6,9 C 35,4 km/h (5 Bft)
28.12.2017 21:30 3,8 C 93 % 995,3 hPa 0,0 l/m 27,8 km/h (5 Bft) S-SW 212 0 min 0 W/m 2,8 C -7,4 C 40,2 km/h (6 Bft)
28.12.2017 21:33 3,8 C 93 % 995,3 hPa 0,2 l/m 23,8 km/h (4 Bft) W-SW 240 0 min 0 W/m 2,8 C -6,2 C 38,6 km/h (6 Bft)
28.12.2017 21:36 3,8 C 93 % 995,2 hPa 0,0 l/m 23,1 km/h (4 Bft) SW 227 0 min 0 W/m 2,8 C -5,9 C 40,2 km/h (6 Bft)
28.12.2017 21:39 3,7 C 93 % 995,3 hPa 0,2 l/m 23,3 km/h (4 Bft) W-SW 238 0 min 0 W/m 2,7 C -6,1 C 35,4 km/h (5 Bft)
28.12.2017 21:42 3,7 C 93 % 995,3 hPa 0,0 l/m 23,2 km/h (4 Bft) S-SW 213 0 min 0 W/m 2,7 C -6,1 C 32,2 km/h (5 Bft)
28.12.2017 21:45 3,6 C 93 % 995,3 hPa 0,0 l/m 23,3 km/h (4 Bft) W-SW 244 0 min 0 W/m 2,6 C -6,3 C 37,0 km/h (5 Bft)
28.12.2017 21:48 3,6 C 93 % 995,4 hPa 0,0 l/m 23,7 km/h (4 Bft) W-SW 238 0 min 0 W/m 2,6 C -6,4 C 41,8 km/h (6 Bft)
28.12.2017 21:51 3,5 C 93 % 995,4 hPa 0,0 l/m 20,7 km/h (4 Bft) SW 219 0 min 0 W/m 2,5 C -5,4 C 30,6 km/h (5 Bft)
28.12.2017 21:54 3,5 C 94 % 995,4 hPa 0,0 l/m 19,5 km/h (3 Bft) SW 217 0 min 0 W/m 2,6 C -4,9 C 35,4 km/h (5 Bft)
28.12.2017 21:57 3,6 C 94 % 995,5 hPa 0,0 l/m 25,6 km/h (4 Bft) SW 228 0 min 0 W/m 2,7 C -7,0 C 45,1 km/h (6 Bft)
28.12.2017 22:00 3,6 C 94 % 995,6 hPa 0,0 l/m 25,8 km/h (4 Bft) W-SW 237 0 min 0 W/m 2,7 C -7,1 C 38,6 km/h (6 Bft)
28.12.2017 22:03 3,6 C 94 % 995,5 hPa 0,0 l/m 25,2 km/h (4 Bft) SW 216 0 min 0 W/m 2,7 C -6,9 C 40,2 km/h (6 Bft)
28.12.2017 22:06 3,6 C 94 % 995,5 hPa 0,0 l/m 23,2 km/h (4 Bft) SW 228 0 min 0 W/m 2,7 C -6,2 C 33,8 km/h (5 Bft)
28.12.2017 22:09 3,6 C 94 % 995,5 hPa 0,0 l/m 24,2 km/h (4 Bft) S-SW 202 0 min 0 W/m 2,7 C -6,6 C 43,5 km/h (6 Bft)
28.12.2017 22:12 3,6 C 94 % 995,5 hPa 0,0 l/m 23,8 km/h (4 Bft) SW 215 0 min 0 W/m 2,7 C -6,4 C 35,4 km/h (5 Bft)
28.12.2017 22:15 3,6 C 94 % 995,5 hPa 0,0 l/m 21,5 km/h (4 Bft) S-SW 209 0 min 0 W/m 2,7 C -5,6 C 30,6 km/h (5 Bft)
28.12.2017 22:18 3,6 C 94 % 995,5 hPa 0,0 l/m 21,3 km/h (4 Bft) SW 223 0 min 0 W/m 2,7 C -5,5 C 30,6 km/h (5 Bft)
28.12.2017 22:21 3,7 C 94 % 995,5 hPa 0,0 l/m 21,7 km/h (4 Bft) SW 234 0 min 0 W/m 2,8 C -5,5 C 32,2 km/h (5 Bft)
28.12.2017 22:24 3,7 C 94 % 995,6 hPa 0,0 l/m 21,1 km/h (4 Bft) SW 225 0 min 0 W/m 2,8 C -5,3 C 35,4 km/h (5 Bft)
28.12.2017 22:27 3,6 C 94 % 995,7 hPa 0,0 l/m 19,2 km/h (3 Bft) W 261 0 min 0 W/m 2,7 C -4,6 C 25,7 km/h (4 Bft)
28.12.2017 22:30 3,6 C 94 % 995,7 hPa 0,0 l/m 23,8 km/h (4 Bft) S-SW 203 0 min 0 W/m 2,7 C -6,4 C 32,2 km/h (5 Bft)
28.12.2017 22:33 3,6 C 94 % 995,7 hPa 0,0 l/m 21,3 km/h (4 Bft) SW 236 0 min 0 W/m 2,7 C -5,5 C 30,6 km/h (5 Bft)
28.12.2017 22:36 3,6 C 94 % 995,7 hPa 0,0 l/m 21,5 km/h (4 Bft) W-SW 239 0 min 0 W/m 2,7 C -5,6 C 33,8 km/h (5 Bft)
28.12.2017 22:39 3,6 C 94 % 995,7 hPa 0,0 l/m 21,4 km/h (4 Bft) S-SW 206 0 min 0 W/m 2,7 C -5,5 C 35,4 km/h (5 Bft)
28.12.2017 22:42 3,6 C 94 % 995,8 hPa 0,0 l/m 20,3 km/h (4 Bft) W-SW 248 0 min 0 W/m 2,7 C -5,1 C 30,6 km/h (5 Bft)
28.12.2017 22:45 3,6 C 94 % 995,8 hPa 0,0 l/m 18,8 km/h (3 Bft) SW 225 0 min 0 W/m 2,7 C -4,5 C 30,6 km/h (5 Bft)
28.12.2017 22:48 3,7 C 94 % 995,8 hPa 0,0 l/m 21,7 km/h (4 Bft) W-SW 238 0 min 0 W/m 2,8 C -5,5 C 29,0 km/h (5 Bft)
28.12.2017 22:51 3,7 C 94 % 995,9 hPa 0,0 l/m 22,3 km/h (4 Bft) W-SW 247 0 min 0 W/m 2,8 C -5,8 C 33,8 km/h (5 Bft)
28.12.2017 22:54 3,7 C 94 % 996,0 hPa 0,2 l/m 23,9 km/h (4 Bft) W-SW 240 0 min 0 W/m 2,8 C -6,3 C 35,4 km/h (5 Bft)
28.12.2017 22:57 3,7 C 94 % 996,1 hPa 0,2 l/m 21,5 km/h (4 Bft) SW 216 0 min 0 W/m 2,8 C -5,5 C 38,6 km/h (6 Bft)
28.12.2017 23:00 3,6 C 94 % 996,0 hPa 0,0 l/m 22,9 km/h (4 Bft) W-SW 248 0 min 0 W/m 2,7 C -6,1 C 37,0 km/h (5 Bft)
28.12.2017 23:03 3,5 C 94 % 996,0 hPa 0,0 l/m 22,9 km/h (4 Bft) SW 225 0 min 0 W/m 2,6 C -6,2 C 32,2 km/h (5 Bft)
28.12.2017 23:06 3,4 C 94 % 996,0 hPa 0,0 l/m 22,3 km/h (4 Bft) SW 234 0 min 0 W/m 2,5 C -6,2 C 33,8 km/h (5 Bft)
28.12.2017 23:09 3,4 C 94 % 996,1 hPa 0,0 l/m 20,9 km/h (4 Bft) SW 218 0 min 0 W/m 2,5 C -5,6 C 30,6 km/h (5 Bft)
28.12.2017 23:12 3,4 C 94 % 996,1 hPa 0,0 l/m 20,2 km/h (4 Bft) S-SW 206 0 min 0 W/m 2,5 C -5,3 C 33,8 km/h (5 Bft)
28.12.2017 23:15 3,4 C 94 % 996,1 hPa 0,0 l/m 22,1 km/h (4 Bft) W-SW 243 0 min 0 W/m 2,5 C -6,1 C 33,8 km/h (5 Bft)
28.12.2017 23:18 3,4 C 94 % 996,2 hPa 0,0 l/m 20,8 km/h (4 Bft) SW 217 0 min 0 W/m 2,5 C -5,6 C 30,6 km/h (5 Bft)
28.12.2017 23:21 3,4 C 94 % 996,2 hPa 0,0 l/m 23,0 km/h (4 Bft) SW 233 0 min 0 W/m 2,5 C -6,4 C 38,6 km/h (6 Bft)
28.12.2017 23:24 3,5 C 94 % 996,4 hPa 0,0 l/m 20,9 km/h (4 Bft) SW 229 0 min 0 W/m 2,6 C -5,5 C 30,6 km/h (5 Bft)
28.12.2017 23:27 3,5 C 94 % 996,4 hPa 0,0 l/m 21,9 km/h (4 Bft) SW 235 0 min 0 W/m 2,6 C -5,9 C 32,2 km/h (5 Bft)
28.12.2017 23:30 3,5 C 94 % 996,4 hPa 0,0 l/m 21,1 km/h (4 Bft) W-SW 245 0 min 0 W/m 2,6 C -5,6 C 29,0 km/h (5 Bft)
28.12.2017 23:33 3,5 C 94 % 996,5 hPa 0,0 l/m 21,6 km/h (4 Bft) SW 222 0 min 0 W/m 2,6 C -5,8 C 32,2 km/h (5 Bft)
28.12.2017 23:36 3,6 C 94 % 996,5 hPa 0,0 l/m 26,2 km/h (4 Bft) SW 222 0 min 0 W/m 2,7 C -7,2 C 37,0 km/h (5 Bft)
28.12.2017 23:39 3,4 C 94 % 996,6 hPa 0,0 l/m 23,0 km/h (4 Bft) SW 228 0 min 0 W/m 2,5 C -6,4 C 33,8 km/h (5 Bft)
28.12.2017 23:42 3,4 C 94 % 996,6 hPa 0,0 l/m 23,0 km/h (4 Bft) SW 236 0 min 0 W/m 2,5 C -6,4 C 35,4 km/h (5 Bft)
28.12.2017 23:45 3,4 C 94 % 996,6 hPa 0,0 l/m 22,1 km/h (4 Bft) SW 228 0 min 0 W/m 2,5 C -6,1 C 30,6 km/h (5 Bft)
28.12.2017 23:48 3,4 C 94 % 996,6 hPa 0,0 l/m 21,9 km/h (4 Bft) S-SW 207 0 min 0 W/m 2,5 C -6,0 C 32,2 km/h (5 Bft)
28.12.2017 23:51 3,4 C 94 % 996,6 hPa 0,0 l/m 21,1 km/h (4 Bft) S-SW 202 0 min 0 W/m 2,5 C -5,7 C 33,8 km/h (5 Bft)
28.12.2017 23:54 3,4 C 94 % 996,5 hPa 0,0 l/m 21,4 km/h (4 Bft) SW 214 0 min 0 W/m 2,5 C -5,8 C 35,4 km/h (5 Bft)
28.12.2017 23:57 3,4 C 94 % 996,4 hPa 0,0 l/m 25,6 km/h (4 Bft) SW 215 0 min 0 W/m 2,5 C -7,3 C 35,4 km/h (5 Bft)
_ Min-Zeit 18:54 09:54 00:09 - 07:15 - - - - 21:51 21:12 07:06
Minimum _ 3,4 C 86 % 982,4 hPa - 3,6 km/h (1 Bft) - - - - 2,5 C -7,6 C 6,4 km/h (2 Bft)
_ Max-Zeit 09:45 00:00 23:39 03:03 21:12 - - 11:30 12:33 01:45 07:45 15:48
Maximum _ 5,3 C 95 % 996,6 hPa 0,2 l/m 27,8 km/h
S-SW (5 Bft)
- - 3 min 192 W/m 3,9 C 5,1 C 46,7 km/h
SW (6 Bft)
Durchschnitt _ 4,2 C 92 % 989,8 hPa #2,0 l/m 16,3 km/h (3 Bft) SW - #30 min. 53 W/m 3,0 C -2,0 C 26,0 km/h (4 Bft)
2017 Cux-Wetter.de -Die Nutzung der Wetterdaten nur mit ausdrcklicher Genehmigung